M I D A S
Marine Information and Data Acquisition System
Tripno 715 of the Zeeleeuw from 2004-05-12 06:32:25 to 2004-05-12 16:00:46
Back to CruiseResearch ActivitiesStationsMapUnderway DataData graphs

EquipmentUnitsComment
TimeDGPSUTC
LatitudeDGPSDM.mWGS84
LongitudeDGPSDM.mWGS84
TemperatureSBE03/SBE38deg celciusITS90
ConductivitySBE21S/mITS90
SalinitySBE21 Practical Salinity Units
ChlorophylAChelsea fluorimeterg/lCalibrated in Aceton
Missing or incorrect values are displayed as -999
Sea surface data collected by the RV Zeeleeuw from 2004-05-12 06:32:25 to 2004-05-12 16:00:46
                                                                                    Next 1000 lines
Time Latitude Longitude Temperature Conductivity Salinity ChlorophylA
2004-05-12 06:32:33 51°13.598 2°56.098 18.44012 3.722752 28.666551 8.556255
2004-05-12 06:32:37 51°13.598 2°56.098 18.437306 3.722752 28.667079 8.522546
2004-05-12 06:32:42 51°13.598 2°56.097 18.3878 3.722752 28.666551 8.522546
2004-05-12 06:32:47 51°13.598 2°56.095 18.3878 3.722752 28.666551 8.522546
2004-05-12 06:32:53 51°13.599 2°56.091 18.353173 3.722752 28.666551 8.522546
2004-05-12 06:32:57 51°13.6 2°56.088 18.402829 3.722752 28.666551 8.556255
2004-05-12 06:33:03 51°13.601 2°56.083 18.418228 3.722857 28.667452 8.522546
2004-05-12 06:33:07 51°13.602 2°56.078 18.406348 3.722752 28.666551 8.522546
2004-05-12 06:33:14 51°13.604 2°56.07 18.430189 3.722752 28.666551 8.522546
2004-05-12 06:33:18 51°13.606 2°56.064 18.422574 3.722752 28.666551 8.522546
2004-05-12 06:33:23 51°13.608 2°56.057 18.422574 3.722752 28.666551 8.522546
2004-05-12 06:33:28 51°13.609 2°56.049 18.416407 3.722857 28.667452 8.522546
2004-05-12 06:33:33 51°13.612 2°56.041 18.434327 3.722857 28.666923 8.556255
2004-05-12 06:33:38 51°13.614 2°56.033 18.457745 3.722857 28.666923 8.522546
2004-05-12 06:33:43 51°13.616 2°56.024 18.430561 3.722752 28.666551 8.556255
2004-05-12 06:33:48 51°13.619 2°56.014 18.430561 3.722752 28.666551 8.556255
2004-05-12 06:33:53 51°13.622 2°56.005 18.44823 3.722752 28.666022 8.556255
2004-05-12 06:33:58 51°13.625 2°55.995 18.490375 3.722752 28.666551 8.556255
2004-05-12 06:34:03 51°13.627 2°55.986 18.464322 3.722857 28.667452 8.556255
2004-05-12 06:34:08 51°13.631 2°55.976 18.488225 3.722857 28.667452 8.556255
2004-05-12 06:34:13 51°13.634 2°55.966 18.480658 3.722857 28.666923 8.522546
2004-05-12 06:34:18 51°13.637 2°55.956 18.523735 3.722752 28.666022 8.589965
2004-05-12 06:34:23 51°13.64 2°55.947 18.523735 3.722752 28.666022 8.589965
2004-05-12 06:34:28 51°13.644 2°55.937 18.498024 3.722857 28.666923 8.522546
2004-05-12 06:34:33 51°13.647 2°55.928 18.483594 3.722752 28.665493 8.522546
2004-05-12 06:34:38 51°13.651 2°55.918 18.472925 3.722857 28.666395 8.556255
2004-05-12 06:34:43 51°13.654 2°55.909 18.465976 3.722752 28.665493 8.556255
2004-05-12 06:34:48 51°13.658 2°55.899 18.465976 3.722752 28.665493 8.556255
2004-05-12 06:34:53 51°13.662 2°55.89 18.468334 3.722857 28.666395 8.556255
2004-05-12 06:34:58 51°13.666 2°55.881 18.478714 3.722857 28.666923 8.522546
2004-05-12 06:35:03 51°13.669 2°55.871 18.467341 3.722857 28.666923 8.556255
2004-05-12 06:35:07 51°13.672 2°55.863 18.463618 3.722857 28.666923 8.522546
2004-05-12 06:35:14 51°13.677 2°55.85 18.459978 3.722857 28.666395 8.522546
2004-05-12 06:35:18 51°13.68 2°55.842 18.459978 3.722857 28.666395 8.522546
2004-05-12 06:35:23 51°13.683 2°55.832 18.436562 3.722963 28.667825 8.556255
2004-05-12 06:35:27 51°13.686 2°55.824 18.460847 3.722963 28.667296 8.522546
2004-05-12 06:35:34 51°13.69 2°55.81 18.463329 3.722857 28.665866 8.556255
2004-05-12 06:35:38 51°13.692 2°55.802 18.507987 3.722857 28.665866 8.522546
2004-05-12 06:35:43 51°13.695 2°55.793 18.465273 3.722857 28.665337 8.488836
2004-05-12 06:35:48 51°13.697 2°55.785 18.465273 3.722857 28.665337 8.488836
2004-05-12 06:35:53 51°13.698 2°55.779 18.478466 3.722963 28.666239 8.522546
2004-05-12 06:35:58 51°13.699 2°55.774 18.482188 3.722963 28.666239 8.556255
2004-05-12 06:36:02 51°13.7 2°55.772 18.507987 3.722963 28.66571 8.522546
2004-05-12 06:36:07 51°13.701 2°55.77 18.562242 3.722963 28.66571 8.556255
2004-05-12 06:36:13 51°13.701 2°55.77 18.574178 3.723068 28.666611 8.556255
2004-05-12 06:36:18 51°13.701 2°55.771 18.574178 3.723068 28.666611 8.556255
2004-05-12 06:36:22 51°13.702 2°55.773 18.580496 3.722963 28.665182 8.556255
2004-05-12 06:36:27 51°13.702 2°55.776 18.604153 3.722963 28.666239 8.522546
2004-05-12 06:36:33 51°13.703 2°55.779 18.498603 3.722963 28.667296 8.522546
2004-05-12 06:36:37 51°13.703 2°55.78 18.404692 3.722963 28.667296 8.556255
2004-05-12 06:36:43 51°13.703 2°55.779 18.455345 3.722963 28.667825 8.522546
2004-05-12 06:36:47 51°13.703 2°55.778 18.409411 3.723068 28.668197 8.556255
2004-05-12 06:36:53 51°13.702 2°55.775 18.409411 3.723068 28.668197 8.556255
2004-05-12 06:36:58 51°13.701 2°55.772 18.447237 3.723068 28.667669 8.522546
2004-05-12 06:37:02 51°13.7 2°55.768 18.501662 3.722963 28.666239 8.522546
2004-05-12 06:37:08 51°13.699 2°55.762 18.438217 3.722963 28.66571 8.556255
2004-05-12 06:37:14 51°13.697 2°55.755 18.529149 3.722963 28.664653 8.522546
2004-05-12 06:37:18 51°13.697 2°55.752 18.510922 3.723068 28.666083 8.556255
2004-05-12 06:37:23 51°13.696 2°55.749 18.510922 3.723068 28.666083 8.556255
2004-05-12 06:37:27 51°13.696 2°55.748 18.572195 3.722963 28.665182 8.556255
2004-05-12 06:37:33 51°13.696 2°55.747 18.601305 3.723068 28.666083 8.556255
2004-05-12 06:37:38 51°13.696 2°55.748 18.592718 3.722963 28.66571 8.589965
2004-05-12 06:37:41 51°13.697 2°55.749 18.590653 3.723068 28.666611 8.522546
2004-05-12 06:37:47 51°13.698 2°55.752 18.590653 3.723068 28.666611 8.522546
2004-05-12 06:37:54 51°13.701 2°55.755 18.582065 3.723068 28.66714 8.556255
2004-05-12 06:37:58 51°13.703 2°55.758 18.599654 3.723068 28.66714 8.589965
2004-05-12 06:38:03 51°13.705 2°55.76 18.544024 3.723173 28.669098 8.556255
2004-05-12 06:38:07 51°13.706 2°55.762 18.465645 3.722963 28.666767 8.589965
2004-05-12 06:38:13 51°13.708 2°55.764 18.444382 3.723068 28.667669 8.556255
2004-05-12 06:38:17 51°13.708 2°55.765 18.444382 3.723068 28.667669 8.556255
2004-05-12 06:38:23 51°13.707 2°55.765 18.469781 3.723068 28.66714 8.556255
2004-05-12 06:38:27 51°13.707 2°55.765 18.430479 3.723068 28.66714 8.556255
2004-05-12 06:38:33 51°13.705 2°55.763 18.517783 3.723068 28.666083 8.556255
2004-05-12 06:38:37 51°13.703 2°55.762 18.479252 3.723068 28.666083 8.589965
2004-05-12 06:38:43 51°13.7 2°55.76 18.491285 3.723068 28.665554 8.556255
2004-05-12 06:38:47 51°13.698 2°55.758 18.491285 3.723068 28.665554 8.556255
2004-05-12 06:38:53 51°13.695 2°55.755 18.541627 3.723173 28.666455 8.556255
2004-05-12 06:38:58 51°13.692 2°55.752 18.536339 3.723173 28.666984 8.522546
2004-05-12 06:39:03 51°13.69 2°55.75 18.514601 3.723173 28.666984 8.556255
2004-05-12 06:39:07 51°13.689 2°55.749 18.527082 3.723173 28.667513 8.556255
2004-05-12 06:39:13 51°13.69 2°55.749 18.641502 3.723173 28.666984 8.556255
2004-05-12 06:39:18 51°13.692 2°55.75 18.722361 3.723068 28.666611 8.623674
2004-05-12 06:39:23 51°13.695 2°55.751 18.722361 3.723068 28.666611 8.623674
2004-05-12 06:39:28 51°13.7 2°55.751 18.785096 3.723173 28.666984 8.589965
2004-05-12 06:39:34 51°13.707 2°55.749 18.773607 3.723173 28.666984 8.589965
2004-05-12 06:39:38 51°13.713 2°55.747 18.77859 3.723068 28.667669 8.556255
2004-05-12 06:39:43 51°13.72 2°55.741 18.611129 3.723173 28.669098 8.522546
2004-05-12 06:39:47 51°13.726 2°55.737 18.611129 3.723173 28.669098 8.522546
2004-05-12 06:39:53 51°13.733 2°55.73 18.493931 3.723173 28.670156 8.589965
2004-05-12 06:39:58 51°13.739 2°55.724 18.50096 3.723173 28.669627 8.556255
2004-05-12 06:40:03 51°13.746 2°55.718 18.5022 3.723173 28.669627 8.556255
2004-05-12 06:40:07 51°13.751 2°55.712 18.478714 3.723173 28.66857 8.589965
2004-05-12 06:40:13 51°13.759 2°55.704 18.462047 3.723173 28.668041 8.556255
2004-05-12 06:40:18 51°13.766 2°55.697 18.493683 3.723173 28.666984 8.556255
2004-05-12 06:40:23 51°13.773 2°55.69 18.493683 3.723173 28.666984 8.556255
2004-05-12 06:40:27 51°13.779 2°55.685 18.503853 3.723068 28.665554 8.556255
2004-05-12 06:40:33 51°13.788 2°55.676 18.497197 3.723173 28.666455 8.556255
2004-05-12 06:40:38 51°13.796 2°55.668 18.499843 3.723279 28.667357 8.589965
2004-05-12 06:40:43 51°13.803 2°55.66 18.504846 3.723173 28.666455 8.589965
2004-05-12 06:40:48 51°13.811 2°55.652 18.494055 3.723279 28.666828 8.556255
2004-05-12 06:40:53 51°13.818 2°55.644 18.494055 3.723279 28.666828 8.556255
2004-05-12 06:40:58 51°13.826 2°55.636 18.450629 3.723279 28.666299 8.589965
2004-05-12 06:41:03 51°13.834 2°55.628 18.451705 3.723173 28.665398 8.589965
2004-05-12 06:41:07 51°13.84 2°55.622 18.446409 3.723279 28.666828 8.589965
2004-05-12 06:41:13 51°13.851 2°55.613 18.451084 3.723173 28.666455 8.556255
2004-05-12 06:41:17 51°13.857 2°55.607 18.452987 3.723279 28.667357 8.556255
2004-05-12 06:41:23 51°13.868 2°55.598 18.452987 3.723279 28.667357 8.556255
2004-05-12 06:41:28 51°13.877 2°55.591 18.44492 3.723279 28.667885 8.589965
2004-05-12 06:41:33 51°13.886 2°55.584 18.439955 3.723173 28.666984 8.556255
2004-05-12 06:41:38 51°13.895 2°55.577 18.459068 3.723173 28.667513 8.589965
2004-05-12 06:41:43 51°13.904 2°55.569 18.508649 3.723173 28.666984 8.589965
2004-05-12 06:41:48 51°13.914 2°55.562 18.457827 3.723173 28.666984 8.556255
2004-05-12 06:41:53 51°13.923 2°55.555 18.457827 3.723173 28.666984 8.556255
2004-05-12 06:41:58 51°13.933 2°55.549 18.461964 3.723173 28.666455 8.556255
2004-05-12 06:42:03 51°13.942 2°55.542 18.471394 3.723173 28.666984 8.556255
2004-05-12 06:42:07 51°13.95 2°55.537 18.488349 3.723173 28.666984 8.556255
2004-05-12 06:42:13 51°13.961 2°55.529 18.455966 3.723173 28.666984 8.556255
2004-05-12 06:42:17 51°13.969 2°55.524 18.455966 3.723173 28.666984 8.556255
2004-05-12 06:42:23 51°13.98 2°55.516 18.491657 3.723173 28.668041 8.556255
2004-05-12 06:42:27 51°13.988 2°55.51 18.492939 3.723173 28.666984 8.589965
2004-05-12 06:42:33 51°13.999 2°55.502 18.482767 3.723173 28.666984 8.589965
2004-05-12 06:42:37 51°14.007 2°55.496 18.459399 3.723279 28.666828 8.556255
2004-05-12 06:42:43 51°14.018 2°55.488 18.476771 3.723173 28.665927 8.556255
2004-05-12 06:42:47 51°14.025 2°55.482 18.476771 3.723173 28.665927 8.556255
2004-05-12 06:42:53 51°14.037 2°55.474 18.467424 3.723173 28.665398 8.556255
2004-05-12 06:42:58 51°14.047 2°55.468 18.468127 3.723173 28.665398 8.556255
2004-05-12 06:43:03 51°14.057 2°55.461 18.474372 3.723173 28.665927 8.589965
2004-05-12 06:43:07 51°14.065 2°55.456 18.472759 3.723279 28.666828 8.556255
2004-05-12 06:43:13 51°14.078 2°55.448 18.456297 3.723279 28.667357 8.522546
2004-05-12 06:43:17 51°14.086 2°55.443 18.456297 3.723279 28.667357 8.522546
2004-05-12 06:43:23 51°14.099 2°55.436 18.525801 3.723068 28.665026 8.556255
2004-05-12 06:43:27 51°14.108 2°55.431 18.473545 3.723173 28.665398 8.589965
2004-05-12 06:43:33 51°14.122 2°55.422 18.469368 3.723384 28.667201 8.522546
2004-05-12 06:43:38 51°14.134 2°55.416 18.474703 3.723279 28.666299 8.556255
2004-05-12 06:43:43 51°14.145 2°55.409 18.507987 3.723279 28.666299 8.556255
2004-05-12 06:43:48 51°14.157 2°55.401 18.484421 3.723173 28.66487 8.556255
2004-05-12 06:43:53 51°14.169 2°55.393 18.484421 3.723173 28.66487 8.556255
2004-05-12 06:43:58 51°14.181 2°55.384 18.4936 3.723173 28.665398 8.589965
2004-05-12 06:44:03 51°14.193 2°55.373 18.552038 3.723279 28.666299 8.589965
2004-05-12 06:44:07 51°14.202 2°55.364 18.5717 3.723384 28.668258 8.556255
2004-05-12 06:44:13 51°14.216 2°55.348 18.541627 3.723173 28.666455 8.589965
2004-05-12 06:44:18 51°14.227 2°55.334 18.490541 3.723384 28.667729 8.556255
2004-05-12 06:44:23 51°14.238 2°55.318 18.490541 3.723384 28.667729 8.556255
2004-05-12 06:44:27 51°14.247 2°55.304 18.47003 3.723279 28.666828 8.589965
2004-05-12 06:44:33 51°14.26 2°55.283 18.499802 3.723279 28.665771 8.522546
2004-05-12 06:44:38 51°14.27 2°55.264 18.473255 3.723279 28.665771 8.556255
2004-05-12 06:44:43 51°14.281 2°55.244 18.521379 3.723173 28.664341 8.556255
2004-05-12 06:44:46 51°14.287 2°55.232 18.432713 3.723595 28.667417 8.589965
2004-05-12 06:44:53 51°14.301 2°55.202 18.432713 3.723595 28.667417 8.589965
2004-05-12 06:44:58 51°14.311 2°55.18 18.397157 3.723173 28.663813 8.589965
2004-05-12 06:45:03 51°14.321 2°55.159 18.413095 3.722752 28.660209 8.556255
2004-05-12 06:45:07 51°14.329 2°55.142 18.437968 3.723384 28.665615 8.556255
2004-05-12 06:45:13 51°14.341 2°55.116 18.482105 3.723068 28.663969 8.556255
2004-05-12 06:45:17 51°14.349 2°55.098 18.451208 3.723279 28.665242 8.556255
2004-05-12 06:45:23 51°14.36 2°55.07 18.451208 3.723279 28.665242 8.556255
2004-05-12 06:45:28 51°14.368 2°55.046 18.427168 3.722857 28.662166 8.556255
2004-05-12 06:45:33 51°14.378 2°55.021 18.405561 3.723595 28.66636 8.589965
2004-05-12 06:45:37 51°14.385 2°55.002 18.362909 3.723173 28.662228 8.589965
2004-05-12 06:45:42 51°14.396 2°54.979 18.345799 3.723595 28.665303 8.589965
2004-05-12 06:45:47 51°14.407 2°54.957 18.345799 3.723595 28.665303 8.589965
2004-05-12 06:45:53 51°14.421 2°54.93 18.454146 3.722646 28.658779 8.556255
2004-05-12 06:45:57 51°14.43 2°54.912 18.307089 3.723279 28.663657 8.589965
2004-05-12 06:46:03 51°14.443 2°54.885 18.247117 3.723911 28.669064 8.556255
2004-05-12 06:46:07 51°14.452 2°54.867 18.325327 3.723068 28.662912 8.589965
2004-05-12 06:46:13 51°14.465 2°54.84 18.304104 3.723068 28.662383 8.589965
2004-05-12 06:46:17 51°14.474 2°54.822 18.304104 3.723068 28.662383 8.589965
2004-05-12 06:46:23 51°14.487 2°54.795 18.317452 3.723384 28.66403 8.589965
2004-05-12 06:46:27 51°14.496 2°54.777 18.365477 3.722541 28.65735 8.589965
2004-05-12 06:46:33 51°14.508 2°54.75 18.168444 3.723279 28.663129 8.522546
2004-05-12 06:46:38 51°14.519 2°54.727 18.196519 3.722646 28.658251 8.589965
2004-05-12 06:46:40 51°14.523 2°54.719 18.219726 3.7237 28.665148 8.623674
2004-05-12 06:46:47 51°14.538 2°54.687 18.219726 3.7237 28.665148 8.623674
2004-05-12 06:46:53 51°14.551 2°54.66 18.249731 3.722752 28.660209 8.556255
2004-05-12 06:46:57 51°14.559 2°54.642 18.233506 3.724122 28.669809 8.589965
2004-05-12 06:47:03 51°14.572 2°54.615 18.262924 3.723068 28.662912 8.589965
2004-05-12 06:47:08 51°14.583 2°54.593 18.251764 3.723489 28.665988 8.589965
2004-05-12 06:47:13 51°14.594 2°54.57 18.25081 3.723911 28.669064 8.488836
2004-05-12 06:47:18 51°14.604 2°54.548 18.25081 3.723911 28.669064 8.488836
2004-05-12 06:47:23 51°14.615 2°54.525 18.283786 3.722857 28.660053 8.589965
2004-05-12 06:47:27 51°14.624 2°54.507 18.265288 3.723806 28.667106 8.522546
2004-05-12 06:47:33 51°14.637 2°54.481 18.283786 3.723173 28.661171 8.556255
2004-05-12 06:47:38 51°14.648 2°54.459 18.297014 3.723068 28.660798 8.556255
2004-05-12 06:47:43 51°14.659 2°54.436 18.288307 3.723489 28.664931 8.589965
2004-05-12 06:47:47 51°14.668 2°54.418 18.284782 3.723384 28.663501 8.556255
2004-05-12 06:47:53 51°14.681 2°54.39 18.284782 3.723384 28.663501 8.556255
2004-05-12 06:47:57 51°14.688 2°54.371 18.299875 3.724016 28.669965 8.522546
2004-05-12 06:48:02 51°14.697 2°54.347 18.311442 3.723384 28.664558 8.589965
2004-05-12 06:48:07 51°14.706 2°54.322 18.300497 3.723384 28.665615 8.488836
2004-05-12 06:48:13 51°14.716 2°54.292 18.291168 3.724016 28.669436 8.522546
2004-05-12 06:48:17 51°14.723 2°54.272 18.312644 3.722963 28.659897 8.589965
2004-05-12 06:48:22 51°14.731 2°54.248 18.312644 3.722963 28.659897 8.589965
2004-05-12 06:48:27 51°14.739 2°54.222 18.306509 3.723384 28.66403 8.556255
2004-05-12 06:48:33 51°14.749 2°54.193 18.299502 3.723806 28.667634 8.522546
2004-05-12 06:48:37 51°14.756 2°54.173 18.317784 3.7237 28.665676 8.589965
2004-05-12 06:48:43 51°14.766 2°54.143 18.314385 3.723173 28.662228 8.556255
2004-05-12 06:48:47 51°14.772 2°54.123 18.314385 3.723173 28.662228 8.556255
2004-05-12 06:48:53 51°14.782 2°54.093 18.317784 3.7237 28.666205 8.455127
2004-05-12 06:48:58 51°14.791 2°54.068 18.326156 3.723068 28.659742 8.556255
2004-05-12 06:49:03 51°14.799 2°54.044 18.319649 3.723173 28.661171 8.556255
2004-05-12 06:49:07 51°14.805 2°54.024 18.324581 3.723384 28.661916 8.522546
2004-05-12 06:49:13 51°14.815 2°53.993 18.322136 3.723384 28.662445 8.556255
2004-05-12 06:49:17 51°14.821 2°53.973 18.322136 3.723384 28.662445 8.556255
2004-05-12 06:49:23 51°14.83 2°53.943 18.334362 3.722541 28.654708 8.589965
2004-05-12 06:49:28 51°14.837 2°53.918 18.34294 3.722857 28.658996 8.589965
2004-05-12 06:49:33 51°14.845 2°53.892 18.322716 3.7237 28.665148 8.556255
2004-05-12 06:49:38 51°14.852 2°53.867 18.343395 3.723279 28.660487 8.623674
2004-05-12 06:49:43 51°14.859 2°53.841 18.361832 3.722541 28.655237 8.589965
2004-05-12 06:49:47 51°14.865 2°53.82 18.361832 3.722541 28.655237 8.589965
2004-05-12 06:49:53 51°14.874 2°53.788 18.349155 3.723384 28.662973 8.589965
2004-05-12 06:49:58 51°14.88 2°53.762 18.338174 3.723384 28.663501 8.488836
2004-05-12 06:50:03 51°14.886 2°53.736 18.332249 3.724122 28.668223 8.488836
2004-05-12 06:50:07 51°14.891 2°53.714 18.35773 3.723384 28.661916 8.589965
2004-05-12 06:50:13 51°14.9 2°53.682 18.343768 3.7237 28.665676 8.455127
2004-05-12 06:50:17 51°14.905 2°53.661 18.343768 3.7237 28.665676 8.455127
2004-05-12 06:50:23 51°14.913 2°53.63 18.349155 3.723806 28.66552 8.455127
2004-05-12 06:50:27 51°14.918 2°53.609 18.36353 3.723279 28.661015 8.522546
2004-05-12 06:50:33 51°14.926 2°53.577 18.358186 3.723911 28.665893 8.589965
2004-05-12 06:50:37 51°14.931 2°53.556 18.373761 3.722962 28.658841 8.522546
2004-05-12 06:50:43 51°14.939 2°53.524 18.365435 3.723806 28.66552 8.556255
2004-05-12 06:50:47 51°14.945 2°53.503 18.365435 3.723806 28.66552 8.556255
2004-05-12 06:50:53 51°14.953 2°53.472 18.365435 3.7237 28.664091 8.556255
2004-05-12 06:50:58 51°14.959 2°53.446 18.383783 3.722963 28.659369 8.589965
2004-05-12 06:51:02 51°14.964 2°53.425 18.375376 3.724016 28.666265 8.556255
2004-05-12 06:51:05 51°14.968 2°53.408 18.385439 3.722962 28.658312 8.589965
2004-05-12 06:51:13 51°14.978 2°53.367 18.38664 3.723068 28.659742 8.522546
2004-05-12 06:51:18 51°14.985 2°53.34 18.370489 3.724016 28.665737 8.488836
2004-05-12 06:51:23 51°14.991 2°53.314 18.370489 3.724016 28.665737 8.488836
2004-05-12 06:51:27 51°14.997 2°53.293 18.389953 3.722962 28.656728 8.623674
2004-05-12 06:51:33 51°15.005 2°53.262 18.380677 3.723911 28.665364 8.522546
2004-05-12 06:51:37 51°15.01 2°53.241 18.387385 3.7237 28.662506 8.589965
2004-05-12 06:51:42 51°15.016 2°53.215 18.389373 3.723595 28.66319 8.488836
2004-05-12 06:51:48 51°15.024 2°53.184 18.389249 3.723384 28.661916 8.589965
2004-05-12 06:51:53 51°15.031 2°53.158 18.389249 3.723384 28.661916 8.589965
2004-05-12 06:51:57 51°15.037 2°53.137 18.385274 3.723911 28.66695 8.488836
2004-05-12 06:52:02 51°15.043 2°53.111 18.387385 3.724227 28.669124 8.522546
2004-05-12 06:52:08 51°15.051 2°53.079 18.39695 3.723279 28.661015 8.556255
2004-05-12 06:52:13 51°15.058 2°53.052 18.401836 3.723384 28.66086 8.589965
2004-05-12 06:52:17 51°15.063 2°53.031 18.401836 3.723384 28.66086 8.589965
2004-05-12 06:52:22 51°15.069 2°53.005 18.396122 3.723595 28.661605 8.623674
2004-05-12 06:52:27 51°15.075 2°52.979 18.396578 3.724016 28.665737 8.488836
2004-05-12 06:52:33 51°15.083 2°52.947 18.401546 3.723173 28.658529 8.556255
2004-05-12 06:52:38 51°15.09 2°52.921 18.415952 3.722436 28.653807 8.623674
2004-05-12 06:52:42 51°15.095 2°52.9 18.404609 3.723806 28.664992 8.589965
2004-05-12 06:52:47 51°15.101 2°52.874 18.417607 3.722857 28.65794 8.556255
2004-05-12 06:52:53 51°15.109 2°52.842 18.417607 3.722857 28.65794 8.556255
2004-05-12 06:52:57 51°15.114 2°52.821 18.410032 3.723806 28.664464 8.589965
2004-05-12 06:53:03 51°15.122 2°52.79 18.409577 3.723595 28.662662 8.522546
2004-05-12 06:53:07 51°15.128 2°52.769 18.414544 3.723595 28.661605 8.556255
2004-05-12 06:53:13 51°15.136 2°52.736 18.412723 3.723911 28.664308 8.556255
2004-05-12 06:53:18 51°15.143 2°52.71 18.421622 3.7237 28.661978 8.623674
2004-05-12 06:53:23 51°15.149 2°52.683 18.421622 3.7237 28.661978 8.623674
2004-05-12 06:53:27 51°15.154 2°52.662 18.419511 3.723279 28.65943 8.522546
2004-05-12 06:53:33 51°15.162 2°52.63 18.425305 3.723068 28.658685 8.522546
2004-05-12 06:53:37 51°15.167 2°52.609 18.421663 3.723911 28.665893 8.589965
2004-05-12 06:53:43 51°15.175 2°52.577 18.431472 3.723279 28.660487 8.623674
2004-05-12 06:53:47 51°15.18 2°52.556 18.431472 3.723279 28.660487 8.623674
2004-05-12 06:53:53 51°15.188 2°52.524 18.426257 3.7237 28.663563 8.589965
2004-05-12 06:53:57 51°15.193 2°52.503 18.433706 3.723173 28.660114 8.589965
2004-05-12 06:54:02 51°15.199 2°52.476 18.431017 3.723384 28.660331 8.623674
2004-05-12 06:54:07 51°15.204 2°52.449 18.434244 3.723489 28.662289 8.589965
2004-05-12 06:54:13 51°15.21 2°52.416 18.438796 3.723279 28.659959 8.556255
2004-05-12 06:54:17 51°15.214 2°52.394 18.438796 3.723279 28.659959 8.556255
2004-05-12 06:54:23 51°15.22 2°52.361 18.436768 3.7237 28.662506 8.556255
2004-05-12 06:54:27 51°15.224 2°52.339 18.437182 3.723068 28.657629 8.556255
2004-05-12 06:54:33 51°15.23 2°52.306 18.436562 3.723595 28.660548 8.623674
2004-05-12 06:54:37 51°15.234 2°52.284 18.437637 3.723384 28.659803 8.556255
2004-05-12 06:54:42 51°15.239 2°52.257 18.445499 3.723595 28.662133 8.589965
2004-05-12 06:54:47 51°15.244 2°52.23 18.445499 3.723595 28.662133 8.589965
2004-05-12 06:54:53 51°15.25 2°52.197 18.446947 3.723068 28.657629 8.556255
2004-05-12 06:54:57 51°15.253 2°52.175 18.44492 3.723595 28.662662 8.556255
2004-05-12 06:55:03 51°15.26 2°52.142 18.446616 3.723173 28.657473 8.556255
2004-05-12 06:55:07 51°15.264 2°52.12 18.445747 3.723384 28.66086 8.556255
2004-05-12 06:55:13 51°15.27 2°52.087 18.447154 3.723911 28.664836 8.556255
2004-05-12 06:55:18 51°15.275 2°52.06 18.448271 3.7237 28.661978 8.556255
2004-05-12 06:55:20 51°15.277 2°52.049 18.448271 3.7237 28.661978 8.556255
2004-05-12 06:55:27 51°15.284 2°52.01 18.452574 3.723173 28.658001 8.589965
2004-05-12 06:55:33 51°15.29 2°51.978 18.451374 3.723595 28.661605 8.488836
2004-05-12 06:55:37 51°15.293 2°51.956 18.458365 3.723489 28.661232 8.589965
2004-05-12 06:55:43 51°15.298 2°51.923 18.463246 3.723068 28.658157 8.589965
2004-05-12 06:55:48 51°15.3 2°51.895 18.457207 3.723384 28.660331 8.589965
2004-05-12 06:55:53 51°15.303 2°51.867 18.457207 3.723384 28.660331 8.589965
2004-05-12 06:55:58 51°15.305 2°51.839 18.459606 3.723384 28.660331 8.522546
2004-05-12 06:56:03 51°15.308 2°51.811 18.462171 3.723806 28.663407 8.589965
2004-05-12 06:56:07 51°15.309 2°51.788 18.460475 3.723489 28.661761 8.589965
2004-05-12 06:56:13 51°15.312 2°51.754 18.462584 3.723489 28.660176 8.589965
2004-05-12 06:56:18 51°15.313 2°51.726 18.462584 3.723489 28.660176 8.589965
2004-05-12 06:56:23 51°15.315 2°51.698 18.465273 3.723595 28.661605 8.589965
2004-05-12 06:56:27 51°15.315 2°51.675 18.473545 3.723384 28.659803 8.589965
2004-05-12 06:56:33 51°15.315 2°51.642 18.470774 3.723173 28.658529 8.556255
2004-05-12 06:56:37 51°15.314 2°51.619 18.464363 3.723595 28.661077 8.556255
2004-05-12 06:56:43 51°15.312 2°51.585 18.465563 3.7237 28.662506 8.522546
2004-05-12 06:56:47 51°15.31 2°51.563 18.472346 3.723595 28.662133 8.589965
2004-05-12 06:56:53 51°15.306 2°51.53 18.472346 3.723595 28.662133 8.589965
2004-05-12 06:56:57 51°15.303 2°51.508 18.478094 3.723279 28.658902 8.589965
2004-05-12 06:57:03 51°15.3 2°51.475 18.471808 3.723595 28.661077 8.556255
2004-05-12 06:57:07 51°15.297 2°51.453 18.471643 3.723806 28.663935 8.556255
2004-05-12 06:57:13 51°15.294 2°51.419 18.474331 3.723595 28.661077 8.623674
2004-05-12 06:57:17 51°15.289 2°51.398 18.474331 3.723595 28.661077 8.623674
2004-05-12 06:57:23 51°15.287 2°51.364 18.478797 3.723279 28.65943 8.556255
2004-05-12 06:57:26 51°15.283 2°51.348 18.489011 3.723595 28.663718 8.556255
2004-05-12 06:57:33 51°15.28 2°51.308 18.477598 3.723173 28.659586 8.556255
2004-05-12 06:57:38 51°15.276 2°51.28 18.484793 3.722963 28.667296 8.589965
2004-05-12 06:57:42 51°15.274 2°51.258 18.487605 3.72349 28.673917 8.589965
2004-05-12 06:57:45 51°15.271 2°51.241 18.487605 3.72349 28.673917 8.589965
2004-05-12 06:57:53 51°15.265 2°51.197 18.482478 3.723384 28.67143 8.522546
2004-05-12 06:57:58 51°15.263 2°51.169 18.489797 3.723384 28.662973 8.623674
2004-05-12 06:58:03 51°15.259 2°51.141 18.490582 3.722857 28.647379 8.589965
2004-05-12 06:58:07 51°15.258 2°51.119 18.489838 3.723068 28.639154 8.556255
2004-05-12 06:58:13 51°15.253 2°51.085 18.490665 3.722541 28.636235 8.556255
2004-05-12 06:58:17 51°15.252 2°51.063 18.490665 3.722541 28.636235 8.556255
2004-05-12 06:58:23 51°15.247 2°51.029 18.496247 3.722962 28.645112 8.589965
2004-05-12 06:58:27 51°15.246 2°51.007 18.494345 3.722752 28.651229 8.589965
2004-05-12 06:58:33 51°15.241 2°50.974 18.496205 3.723595 28.669003 8.522546
2004-05-12 06:58:37 51°15.24 2°50.951 18.494303 3.722857 28.665337 8.556255
2004-05-12 06:58:43 51°15.235 2°50.918 18.500712 3.722647 28.669879 8.556255
2004-05-12 06:58:47 51°15.234 2°50.896 18.503564 3.723173 28.672271 8.589965
2004-05-12 06:58:53 51°15.229 2°50.863 18.503564 3.723173 28.672271 8.589965
2004-05-12 06:58:58 51°15.227 2°50.835 18.501166 3.723068 28.669254 8.623674
2004-05-12 06:59:02 51°15.223 2°50.813 18.503027 3.723384 28.670372 8.589965
2004-05-12 06:59:08 51°15.221 2°50.779 18.50406 3.723384 28.665087 8.623674
2004-05-12 06:59:13 51°15.217 2°50.751 18.507326 3.723279 28.664714 8.623674
2004-05-12 06:59:18 51°15.215 2°50.723 18.511831 3.723489 28.664402 8.556255
2004-05-12 06:59:23 51°15.211 2°50.696 18.511831 3.723489 28.664402 8.556255
2004-05-12 06:59:28 51°15.209 2°50.667 18.50745 3.723595 28.663718 8.589965
2004-05-12 06:59:33 51°15.205 2°50.64 18.513402 3.723489 28.664931 8.556255
2004-05-12 06:59:37 51°15.203 2°50.617 18.508814 3.723595 28.663718 8.623674
2004-05-12 06:59:42 51°15.2 2°50.589 18.518734 3.723595 28.665832 8.589965
2004-05-12 06:59:47 51°15.198 2°50.561 18.51613 3.723806 28.66552 8.589965
2004-05-12 06:59:53 51°15.195 2°50.528 18.51613 3.723806 28.66552 8.589965
2004-05-12 06:59:57 51°15.193 2°50.505 18.518899 3.723068 28.660798 8.556255
2004-05-12 07:00:03 51°15.19 2°50.472 18.518362 3.723595 28.66636 8.623674
2004-05-12 07:00:05 51°15.188 2°50.461 18.521462 3.723489 28.664931 8.623674
2004-05-12 07:00:13 51°15.184 2°50.416 18.520842 3.723384 28.659803 8.623674
2004-05-12 07:00:18 51°15.18 2°50.388 18.52109 3.723384 28.656106 8.589965
2004-05-12 07:00:22 51°15.179 2°50.366 18.52109 3.723384 28.656106 8.589965
2004-05-12 07:00:28 51°15.174 2°50.333 18.524561 3.723595 28.653155 8.623674
2004-05-12 07:00:33 51°15.172 2°50.304 18.524231 3.723489 28.651199 8.623674
2004-05-12 07:00:37 51°15.169 2°50.282 18.526669 3.723595 28.655267 8.589965
2004-05-12 07:00:43 51°15.167 2°50.249 18.527041 3.7237 28.658808 8.589965
2004-05-12 07:00:48 51°15.163 2°50.221 18.52514 3.723489 28.660704 8.623674
2004-05-12 07:00:53 51°15.161 2°50.194 18.52514 3.723489 28.660704 8.623674
2004-05-12 07:00:57 51°15.158 2°50.172 18.532206 3.7237 28.66779 8.589965
2004-05-12 07:01:03 51°15.155 2°50.138 18.528901 3.7237 28.66779 8.623674
2004-05-12 07:01:07 51°15.153 2°50.116 18.531917 3.723806 28.668163 8.522546
2004-05-12 07:01:13 51°15.148 2°50.083 18.531711 3.723489 28.665459 8.589965
2004-05-12 07:01:17 51°15.147 2°50.06 18.531711 3.723489 28.665459 8.589965
2004-05-12 07:01:23 51°15.143 2°50.027 18.535967 3.724016 28.667322 8.556255
2004-05-12 07:01:27 51°15.141 2°50.005 18.535388 3.723806 28.663407 8.589965
2004-05-12 07:01:33 51°15.138 2°49.971 18.536669 3.723911 28.661138 8.623674
2004-05-12 07:01:37 51°15.135 2°49.949 18.538157 3.724016 28.662567 8.589965
2004-05-12 07:01:43 51°15.133 2°49.915 18.539438 3.724543 28.666015 8.623674
2004-05-12 07:01:45 51°15.131 2°49.904 18.539438 3.724543 28.666015 8.623674
2004-05-12 07:01:53 51°15.127 2°49.859 18.539438 3.723805 28.660766 8.556255
2004-05-12 07:01:57 51°15.125 2°49.837 18.541379 3.724227 28.664369 8.556255
2004-05-12 07:02:02 51°15.122 2°49.809 18.542536 3.724016 28.663096 8.589965
2004-05-12 07:02:06 51°15.12 2°49.787 18.542454 3.724227 28.664369 8.589965
2004-05-12 07:02:13 51°15.118 2°49.748 18.546337 3.724438 28.665642 8.556255
2004-05-12 07:02:18 51°15.114 2°49.72 18.544396 3.723595 28.658964 8.623674
2004-05-12 07:02:23 51°15.112 2°49.692 18.544396 3.723595 28.658964 8.623674
2004-05-12 07:02:27 51°15.109 2°49.67 18.549436 3.724438 28.666171 8.556255
2004-05-12 07:02:33 51°15.106 2°49.637 18.549353 3.724016 28.662567 8.657383
2004-05-12 07:02:38 51°15.104 2°49.608 18.547494 3.724543 28.664959 8.623674
2004-05-12 07:02:43 51°15.1 2°49.581 18.550345 3.724332 28.665798 8.623674
2004-05-12 07:02:48 51°15.099 2°49.552 18.554187 3.724543 28.6676 8.556255
2004-05-12 07:02:53 51°15.096 2°49.524 18.554187 3.724543 28.6676 8.556255
2004-05-12 07:02:57 51°15.094 2°49.502 18.553939 3.724332 28.664742 8.589965
2004-05-12 07:03:03 51°15.09 2°49.469 18.555922 3.724227 28.664369 8.623674
2004-05-12 07:03:06 51°15.089 2°49.452 18.554352 3.724438 28.665114 8.589965
2004-05-12 07:03:13 51°15.085 2°49.412 18.555591 3.724332 28.663685 8.589965
2004-05-12 07:03:17 51°15.084 2°49.39 18.558441 3.724649 28.665859 8.556255
2004-05-12 07:03:23 51°15.079 2°49.357 18.558441 3.724649 28.665859 8.556255
2004-05-12 07:03:27 51°15.078 2°49.335 18.557409 3.724438 28.66353 8.589965
2004-05-12 07:03:31 51°15.075 2°49.313 18.562448 3.724332 28.664742 8.589965
2004-05-12 07:03:37 51°15.072 2°49.28 18.559763 3.724754 28.667288 8.657383
2004-05-12 07:03:43 51°15.069 2°49.246 18.565091 3.724122 28.663468 8.556255
2004-05-12 07:03:47 51°15.066 2°49.224 18.565091 3.724122 28.663468 8.556255
2004-05-12 07:03:53 51°15.063 2°49.19 18.563481 3.724543 28.666543 8.623674
2004-05-12 07:03:57 51°15.061 2°49.168 18.565959 3.724543 28.6676 8.623674
2004-05-12 07:04:03 51°15.057 2°49.134 18.569428 3.724227 28.665954 8.589965
2004-05-12 07:04:07 51°15.057 2°49.111 18.56662 3.724649 28.666388 8.623674
2004-05-12 07:04:13 51°15.052 2°49.078 18.570874 3.724122 28.663468 8.589965
2004-05-12 07:04:18 51°15.051 2°49.05 18.571369 3.724965 28.669618 8.589965
2004-05-12 07:04:21 51°15.048 2°49.034 18.571369 3.724965 28.669618 8.589965
2004-05-12 07:04:27 51°15.046 2°48.999 18.569882 3.724543 28.664959 8.589965
2004-05-12 07:04:33 51°15.042 2°48.966 18.574549 3.724332 28.665798 8.589965
2004-05-12 07:04:37 51°15.04 2°48.944 18.573558 3.724649 28.669029 8.589965
2004-05-12 07:04:42 51°15.038 2°48.916 18.574838 3.724649 28.668501 8.589965
2004-05-12 07:04:47 51°15.034 2°48.888 18.574838 3.724649 28.668501 8.589965
2004-05-12 07:04:53 51°15.033 2°48.854 18.575293 3.724649 28.668501 8.589965
2004-05-12 07:04:58 51°15.027 2°48.827 18.579794 3.724859 28.67136 8.623674
2004-05-12 07:05:03 51°15.027 2°48.798 18.577646 3.724438 28.664586 8.522546
2004-05-12 07:05:06 51°15.024 2°48.782 18.582891 3.723806 28.664992 8.556255
2004-05-12 07:05:13 51°15.021 2°48.743 18.581033 3.724754 28.676273 8.589965
2004-05-12 07:05:18 51°15.018 2°48.714 18.581033 3.724754 28.676273 8.589965
2004-05-12 07:05:23 51°15.015 2°48.687 18.582808 3.724122 28.670337 8.623674
2004-05-12 07:05:27 51°15.013 2°48.665 18.585492 3.724333 28.671611 8.589965
2004-05-12 07:05:33 51°15.01 2°48.631 18.585079 3.724227 28.664369 8.556255
2004-05-12 07:05:37 51°15.009 2°48.608 18.585533 3.724438 28.658777 8.556255
2004-05-12 07:05:43 51°15.006 2°48.575 18.586524 3.724438 28.655609 8.589965
2004-05-12 07:05:48 51°15.003 2°48.546 18.588548 3.724332 28.65682 8.589965
2004-05-12 07:05:53 51°15 2°48.518 18.588548 3.724332 28.65682 8.589965
2004-05-12 07:05:58 51°14.997 2°48.49 18.589208 3.724438 28.659305 8.589965
2004-05-12 07:06:03 51°14.995 2°48.462 18.590282 3.724332 28.66527 8.556255
2004-05-12 07:06:06 51°14.993 2°48.445 18.592676 3.724227 28.669653 8.589965
2004-05-12 07:06:13 51°14.99 2°48.406 18.592264 3.724543 28.67447 8.589965
2004-05-12 07:06:17 51°14.986 2°48.384 18.593296 3.724333 28.673197 8.623674
2004-05-12 07:06:23 51°14.984 2°48.35 18.593296 3.724333 28.673197 8.623674
2004-05-12 07:06:27 51°14.981 2°48.328 18.595566 3.724649 28.675371 8.623674
2004-05-12 07:06:33 51°14.977 2°48.294 18.596392 3.724754 28.67363 8.589965
2004-05-12 07:06:37 51°14.976 2°48.273 18.599034 3.724122 28.66611 8.623674
2004-05-12 07:06:43 51°14.971 2°48.239 18.599241 3.724332 28.666327 8.623674
2004-05-12 07:06:48 51°14.969 2°48.211 18.601305 3.724543 28.6676 8.589965
2004-05-12 07:06:53 51°14.966 2°48.184 18.601305 3.724543 28.6676 8.589965
2004-05-12 07:06:58 51°14.963 2°48.156 18.60114 3.724543 28.667072 8.623674
2004-05-12 07:07:03 51°14.96 2°48.129 18.603204 3.724438 28.666171 8.623674
2004-05-12 07:07:05 51°14.959 2°48.118 18.603906 3.724122 28.663468 8.623674
2004-05-12 07:07:13 51°14.956 2°48.074 18.605804 3.724754 28.669402 8.589965
2004-05-12 07:07:17 51°14.954 2°48.051 18.605804 3.724754 28.669402 8.589965
2004-05-12 07:07:23 51°14.951 2°48.018 18.606465 3.724754 28.668345 8.589965
2004-05-12 07:07:27 51°14.947 2°47.997 18.608983 3.724543 28.666015 8.589965
2004-05-12 07:07:33 51°14.945 2°47.963 18.608653 3.724754 28.665704 8.623674
2004-05-12 07:07:36 51°14.943 2°47.947 18.610593 3.724438 28.665114 8.623674
2004-05-12 07:07:43 51°14.94 2°47.908 18.610923 3.72507 28.667878 8.589965
2004-05-12 07:07:45 51°14.937 2°47.897 18.610923 3.72507 28.667878 8.589965
2004-05-12 07:07:53 51°14.934 2°47.853 18.612821 3.724438 28.664586 8.589965
2004-05-12 07:07:58 51°14.931 2°47.825 18.614101 3.724543 28.667072 8.589965
2004-05-12 07:08:01 51°14.929 2°47.808 18.614307 3.724859 28.669246 8.623674
2004-05-12 07:08:07 51°14.926 2°47.775 18.616495 3.724754 28.670459 8.589965
2004-05-12 07:08:13 51°14.925 2°47.741 18.617692 3.72507 28.667878 8.623674
2004-05-12 07:08:17 51°14.921 2°47.719 18.618063 3.724227 28.664897 8.623674
2004-05-12 07:08:23 51°14.92 2°47.685 18.618063 3.724227 28.664897 8.623674
2004-05-12 07:08:27 51°14.916 2°47.664 18.620251 3.725176 28.672477 8.589965
2004-05-12 07:08:33 51°14.914 2°47.63 18.622974 3.724227 28.669124 8.589965
2004-05-12 07:08:37 51°14.911 2°47.608 18.621901 3.724649 28.678544 8.589965
2004-05-12 07:08:43 51°14.908 2°47.575 18.625162 3.724649 28.675371 8.623674
2004-05-12 07:08:46 51°14.906 2°47.558 18.625162 3.724649 28.675371 8.623674
2004-05-12 07:08:53 51°14.903 2°47.519 18.623635 3.724438 28.668813 8.657383
2004-05-12 07:08:57 51°14.9 2°47.498 18.625533 3.724754 28.66095 8.623674
2004-05-12 07:09:03 51°14.897 2°47.464 18.627844 3.724648 28.653187 8.623674
2004-05-12 07:09:08 51°14.893 2°47.437 18.626895 3.724859 28.654988 8.623674
2004-05-12 07:09:13 51°14.892 2°47.409 18.630031 3.724754 28.654616 8.589965
2004-05-12 07:09:18 51°14.888 2°47.382 18.62966 3.724332 28.65946 8.623674
2004-05-12 07:09:23 51°14.886 2°47.354 18.62966 3.724332 28.65946 8.623674
2004-05-12 07:09:27 51°14.885 2°47.332 18.631021 3.724543 28.667072 8.589965
2004-05-12 07:09:33 51°14.881 2°47.299 18.631764 3.724859 28.676116 8.623674
2004-05-12 07:09:37 51°14.879 2°47.277 18.633043 3.724754 28.675744 8.657383
2004-05-12 07:09:43 51°14.875 2°47.244 18.634776 3.724438 28.672512 8.623674
2004-05-12 07:09:47 51°14.874 2°47.222 18.635106 3.724543 28.672885 8.623674
2004-05-12 07:09:51 51°14.871 2°47.2 18.635106 3.724543 28.672885 8.623674
2004-05-12 07:09:57 51°14.868 2°47.167 18.638572 3.724859 28.672945 8.623674
2004-05-12 07:10:03 51°14.864 2°47.134 18.638036 3.724859 28.671888 8.589965
2004-05-12 07:10:07 51°14.862 2°47.112 18.639521 3.724754 28.669402 8.623674
2004-05-12 07:10:13 51°14.858 2°47.079 18.64014 3.72507 28.672633 8.556255
2004-05-12 07:10:17 51°14.856 2°47.057 18.643606 3.72507 28.670519 8.623674
2004-05-12 07:10:23 51°14.853 2°47.024 18.643606 3.72507 28.670519 8.623674
2004-05-12 07:10:27 51°14.851 2°47.002 18.642533 3.72507 28.672633 8.623674
2004-05-12 07:10:33 51°14.847 2°46.969 18.643358 3.725176 28.672477 8.623674
2004-05-12 07:10:38 51°14.844 2°46.941 18.644885 3.724965 28.670147 8.657383
2004-05-12 07:10:43 51°14.842 2°46.913 18.645916 3.72507 28.669463 8.589965
2004-05-12 07:10:47 51°14.839 2°46.892 18.646617 3.724965 28.668034 8.623674
2004-05-12 07:10:53 51°14.835 2°46.858 18.646617 3.724965 28.668034 8.623674
2004-05-12 07:10:58 51°14.834 2°46.83 18.647896 3.725175 28.670364 8.623674
2004-05-12 07:11:02 51°14.831 2°46.809 18.649093 3.72507 28.669991 8.623674
2004-05-12 07:11:08 51°14.827 2°46.775 18.651444 3.725175 28.67142 8.623674
2004-05-12 07:11:13 51°14.825 2°46.747 18.65165 3.725386 28.672694 8.589965
2004-05-12 07:11:17 51°14.821 2°46.725 18.65165 3.725386 28.672694 8.589965
2004-05-12 07:11:23 51°14.819 2°46.691 18.653837 3.724859 28.669774 8.589965
2004-05-12 07:11:28 51°14.815 2°46.664 18.653548 3.725386 28.674279 8.623674
2004-05-12 07:11:33 51°14.813 2°46.636 18.655569 3.725386 28.672165 8.623674
2004-05-12 07:11:37 51°14.81 2°46.613 18.656105 3.724965 28.668034 8.623674
2004-05-12 07:11:43 51°14.808 2°46.579 18.657013 3.725386 28.67058 8.623674
2004-05-12 07:11:47 51°14.805 2°46.557 18.657013 3.725386 28.67058 8.623674
2004-05-12 07:11:53 51°14.802 2°46.523 18.657384 3.724965 28.668034 8.623674
2004-05-12 07:11:57 51°14.799 2°46.501 18.658869 3.725597 28.671325 8.623674
2004-05-12 07:12:03 51°14.797 2°46.467 18.660684 3.724965 28.666449 8.589965
2004-05-12 07:12:08 51°14.794 2°46.439 18.660684 3.725175 28.669835 8.623674
2004-05-12 07:12:13 51°14.791 2°46.411 18.662581 3.725386 28.671109 8.623674
2004-05-12 07:12:17 51°14.789 2°46.388 18.662581 3.725386 28.671109 8.623674
2004-05-12 07:12:23 51°14.786 2°46.355 18.663158 3.725281 28.670208 8.623674
2004-05-12 07:12:28 51°14.783 2°46.327 18.663695 3.725492 28.673066 8.623674
2004-05-12 07:12:33 51°14.781 2°46.299 18.665138 3.725597 28.672382 8.589965
2004-05-12 07:12:38 51°14.778 2°46.271 18.665881 3.725281 28.669679 8.589965
2004-05-12 07:12:43 51°14.775 2°46.243 18.667159 3.725597 28.672382 8.623674
2004-05-12 07:12:47 51°14.773 2°46.221 18.667159 3.725597 28.672382 8.623674
2004-05-12 07:12:53 51°14.77 2°46.188 18.667984 3.725175 28.667722 8.623674
2004-05-12 07:12:58 51°14.767 2°46.159 18.668933 3.725281 28.669679 8.623674
2004-05-12 07:13:03 51°14.765 2°46.132 18.66918 3.725492 28.670424 8.589965
2004-05-12 07:13:07 51°14.762 2°46.11 18.670293 3.72507 28.668934 8.657383
2004-05-12 07:13:13 51°14.76 2°46.076 18.671778 3.725702 28.671698 8.657383
2004-05-12 07:13:18 51°14.755 2°46.048 18.67252 3.724965 28.668562 8.623674
2004-05-12 07:13:22 51°14.755 2°46.025 18.67252 3.724965 28.668562 8.623674
2004-05-12 07:13:27 51°14.752 2°45.998 18.67417 3.725492 28.673066 8.589965
2004-05-12 07:13:33 51°14.75 2°45.964 18.674376 3.725176 28.671949 8.657383
2004-05-12 07:13:38 51°14.746 2°45.936 18.675572 3.724965 28.673846 8.623674
2004-05-12 07:13:43 51°14.745 2°45.909 18.677593 3.725176 28.675119 8.623674
2004-05-12 07:13:48 51°14.741 2°45.881 18.678954 3.724965 28.66909 8.623674
2004-05-12 07:13:53 51°14.739 2°45.853 18.678954 3.724965 28.66909 8.623674
2004-05-12 07:13:58 51°14.736 2°45.825 18.679819 3.725281 28.668095 8.589965
2004-05-12 07:14:03 51°14.734 2°45.796 18.680768 3.72507 28.659428 8.657383
2004-05-12 07:14:05 51°14.733 2°45.786 18.68184 3.72507 28.658373 8.589965
2004-05-12 07:14:13 51°14.728 2°45.74 18.682953 3.72507 28.658901 8.623674
2004-05-12 07:14:17 51°14.727 2°45.718 18.684025 3.72507 28.663124 8.623674
2004-05-12 07:14:21 51°14.724 2°45.696 18.684025 3.72507 28.663124 8.623674
2004-05-12 07:14:27 51°14.722 2°45.662 18.684438 3.724965 28.668034 8.657383
2004-05-12 07:14:33 51°14.717 2°45.628 18.685757 3.725176 28.673534 8.623674
2004-05-12 07:14:38 51°14.717 2°45.6 18.688396 3.724965 28.672261 8.589965
2004-05-12 07:14:43 51°14.713 2°45.573 18.686705 3.724754 28.674687 8.589965
2004-05-12 07:14:47 51°14.712 2°45.55 18.689385 3.725176 28.675648 8.623674
2004-05-12 07:14:53 51°14.709 2°45.516 18.689385 3.725176 28.675648 8.623674
2004-05-12 07:14:57 51°14.707 2°45.494 18.689674 3.724965 28.672261 8.623674
2004-05-12 07:15:03 51°14.704 2°45.461 18.691983 3.725281 28.673378 8.623674
2004-05-12 07:15:07 51°14.702 2°45.439 18.691983 3.72507 28.668934 8.623674
2004-05-12 07:15:13 51°14.698 2°45.406 18.693055 3.725175 28.668779 8.623674
2004-05-12 07:15:18 51°14.696 2°45.378 18.693055 3.725175 28.668779 8.623674
2004-05-12 07:15:23 51°14.694 2°45.351 18.695322 3.725175 28.666666 8.657383
2004-05-12 07:15:27 51°14.691 2°45.329 18.695322 3.725175 28.668779 8.589965
2004-05-12 07:15:33 51°14.688 2°45.296 18.697177 3.725808 28.672598 8.623674
2004-05-12 07:15:38 51°14.685 2°45.268 18.698826 3.724859 28.66502 8.657383
2004-05-12 07:15:43 51°14.682 2°45.24 18.698991 3.72507 28.667878 8.623674
2004-05-12 07:15:47 51°14.681 2°45.219 18.698991 3.72507 28.667878 8.623674
2004-05-12 07:15:53 51°14.676 2°45.186 18.701341 3.725597 28.66974 8.589965
2004-05-12 07:15:58 51°14.675 2°45.158 18.701794 3.725281 28.669679 8.623674
2004-05-12 07:16:03 51°14.671 2°45.132 18.702948 3.725702 28.672226 8.556255
2004-05-12 07:16:08 51°14.67 2°45.104 18.705793 3.725386 28.667939 8.623674
2004-05-12 07:16:13 51°14.666 2°45.077 18.703361 3.725175 28.669835 8.623674
2004-05-12 07:16:17 51°14.665 2°45.055 18.703361 3.725175 28.669835 8.623674
2004-05-12 07:16:23 51°14.66 2°45.022 18.70501 3.725597 28.673439 8.589965
2004-05-12 07:16:28 51°14.659 2°44.994 18.707277 3.72507 28.668934 8.623674
2004-05-12 07:16:33 51°14.655 2°44.967 18.705051 3.724965 28.66909 8.623674
2004-05-12 07:16:37 51°14.654 2°44.945 18.709173 3.725281 28.668623 8.623674
2004-05-12 07:16:43 51°14.651 2°44.912 18.711316 3.725281 28.663869 8.623674
2004-05-12 07:16:45 51°14.65 2°44.901 18.708884 3.725175 28.663497 8.589965
2004-05-12 07:16:53 51°14.646 2°44.857 18.708884 3.725175 28.663497 8.589965
2004-05-12 07:16:57 51°14.644 2°44.835 18.711769 3.725491 28.663559 8.623674
2004-05-12 07:17:01 51°14.642 2°44.814 18.713088 3.72507 28.662068 8.657383
2004-05-12 07:17:07 51°14.638 2°44.781 18.712223 3.725492 28.667255 8.623674
2004-05-12 07:17:13 51°14.636 2°44.748 18.71655 3.725597 28.669212 8.623674
2004-05-12 07:17:18 51°14.632 2°44.721 18.714325 3.725386 28.671109 8.657383
2004-05-12 07:17:23 51°14.631 2°44.693 18.714325 3.725386 28.671109 8.657383
2004-05-12 07:17:26 51°14.629 2°44.676 18.716056 3.725386 28.671637 8.657383
2004-05-12 07:17:33 51°14.626 2°44.637 18.717457 3.725386 28.67058 8.623674
2004-05-12 07:17:38 51°14.623 2°44.61 18.717993 3.725492 28.672538 8.623674
2004-05-12 07:17:43 51°14.621 2°44.582 18.718528 3.725808 28.674183 8.589965
2004-05-12 07:17:47 51°14.618 2°44.56 18.720507 3.725281 28.667038 8.657383
2004-05-12 07:17:53 51°14.616 2°44.527 18.720507 3.725281 28.667038 8.657383
2004-05-12 07:17:57 51°14.613 2°44.506 18.720094 3.725386 28.67058 8.623674
2004-05-12 07:18:02 51°14.611 2°44.478 18.722608 3.725492 28.669368 8.623674
2004-05-12 07:18:06 51°14.61 2°44.456 18.724174 3.725281 28.66651 8.657383
2004-05-12 07:18:13 51°14.605 2°44.417 18.725081 3.725281 28.668623 8.589965
2004-05-12 07:18:18 51°14.603 2°44.39 18.72574 3.725702 28.670113 8.623674
2004-05-12 07:18:23 51°14.6 2°44.363 18.72574 3.725702 28.670113 8.623674
2004-05-12 07:18:27 51°14.598 2°44.341 18.726606 3.725492 28.66884 8.623674
2004-05-12 07:18:33 51°14.595 2°44.307 18.728336 3.725597 28.669212 8.623674
2004-05-12 07:18:38 51°14.592 2°44.28 18.72846 3.725597 28.669212 8.623674
2004-05-12 07:18:42 51°14.59 2°44.258 18.730644 3.725808 28.669429 8.623674
2004-05-12 07:18:48 51°14.587 2°44.225 18.732004 3.725808 28.668373 8.623674
2004-05-12 07:18:53 51°14.584 2°44.198 18.732004 3.725808 28.668373 8.623674
2004-05-12 07:18:58 51°14.582 2°44.17 18.730809 3.725386 28.668467 8.657383
2004-05-12 07:19:03 51°14.58 2°44.142 18.733446 3.725808 28.669429 8.623674
2004-05-12 07:19:08 51°14.578 2°44.115 18.733734 3.725281 28.66651 8.657383
2004-05-12 07:19:13 51°14.574 2°44.088 18.733899 3.725702 28.671169 8.623674
2004-05-12 07:19:17 51°14.574 2°44.065 18.733899 3.725702 28.671169 8.623674
2004-05-12 07:19:23 51°14.57 2°44.033 18.736165 3.725808 28.670485 8.623674
2004-05-12 07:19:28 51°14.57 2°44.004 18.736536 3.725386 28.668995 8.657383
2004-05-12 07:19:33 51°14.566 2°43.978 18.736907 3.725808 28.671542 8.589965
2004-05-12 07:19:37 51°14.564 2°43.956 18.738884 3.725597 28.667628 8.657383
2004-05-12 07:19:43 51°14.561 2°43.923 18.739708 3.725386 28.666883 8.623674
2004-05-12 07:19:47 51°14.559 2°43.901 18.739708 3.725386 28.666883 8.623674
2004-05-12 07:19:53 51°14.556 2°43.869 18.73942 3.725281 28.664398 8.657383
2004-05-12 07:19:57 51°14.555 2°43.847 18.741356 3.725597 28.667628 8.623674
2004-05-12 07:20:03 51°14.552 2°43.813 18.743004 3.726018 28.67123 8.623674
2004-05-12 07:20:07 51°14.551 2°43.791 18.743251 3.725702 28.667472 8.589965
2004-05-12 07:20:13 51°14.547 2°43.759 18.744611 3.725386 28.665298 8.657383
2004-05-12 07:20:17 51°14.545 2°43.737 18.743169 3.725386 28.666883 8.623674
2004-05-12 07:20:23 51°14.542 2°43.704 18.743169 3.725386 28.666883 8.623674
2004-05-12 07:20:27 51°14.541 2°43.682 18.747618 3.725386 28.664242 8.623674
2004-05-12 07:20:33 51°14.538 2°43.648 18.746176 3.725175 28.665081 8.657383
2004-05-12 07:20:37 51°14.535 2°43.626 18.745888 3.725492 28.667783 8.623674
2004-05-12 07:20:43 51°14.534 2°43.593 18.750007 3.726018 28.670174 8.623674
2004-05-12 07:20:47 51°14.53 2°43.572 18.749513 3.725386 28.667939 8.623674
2004-05-12 07:20:53 51°14.528 2°43.538 18.749513 3.725386 28.667939 8.623674
2004-05-12 07:20:57 51°14.525 2°43.517 18.751243 3.725808 28.669429 8.623674
2004-05-12 07:21:03 51°14.521 2°43.484 18.752809 3.725808 28.669957 8.623674
2004-05-12 07:21:07 51°14.52 2°43.462 18.752603 3.725492 28.666727 8.589965
2004-05-12 07:21:13 51°14.516 2°43.429 18.754909 3.726018 28.671758 8.623674
2004-05-12 07:21:18 51°14.514 2°43.402 18.752973 3.725808 28.669429 8.657383
2004-05-12 07:21:23 51°14.512 2°43.374 18.752973 3.725808 28.669429 8.657383
2004-05-12 07:21:27 51°14.509 2°43.352 18.754168 3.725597 28.667628 8.589965
2004-05-12 07:21:33 51°14.507 2°43.319 18.757628 3.725913 28.668745 8.623674
2004-05-12 07:21:38 51°14.504 2°43.291 18.756269 3.725281 28.664926 8.657383
2004-05-12 07:21:43 51°14.502 2°43.263 18.759275 3.725913 28.669273 8.623674
2004-05-12 07:21:47 51°14.5 2°43.241 18.758163 3.725702 28.669056 8.623674
2004-05-12 07:21:53 51°14.497 2°43.208 18.758163 3.725702 28.669056 8.623674
2004-05-12 07:21:57 51°14.495 2°43.186 18.759646 3.725913 28.668745 8.623674
2004-05-12 07:22:02 51°14.493 2°43.158 18.760429 3.725175 28.662969 8.623674
2004-05-12 07:22:07 51°14.489 2°43.13 18.760429 3.725702 28.669056 8.623674
2004-05-12 07:22:13 51°14.487 2°43.097 18.763806 3.725913 28.668217 8.623674
2004-05-12 07:22:17 51°14.485 2°43.075 18.764383 3.725597 28.667099 8.623674
2004-05-12 07:22:23 51°14.482 2°43.042 18.764383 3.725597 28.667099 8.623674
2004-05-12 07:22:27 51°14.48 2°43.02 18.764053 3.725913 28.669273 8.623674
2004-05-12 07:22:33 51°14.477 2°42.987 18.76673 3.725808 28.668901 8.657383
2004-05-12 07:22:38 51°14.474 2°42.96 18.766071 3.725913 28.67033 8.623674
2004-05-12 07:22:43 51°14.472 2°42.932 18.768336 3.725913 28.667689 8.623674
2004-05-12 07:22:47 51°14.469 2°42.911 18.769283 3.725492 28.665671 8.623674
2004-05-12 07:22:53 51°14.467 2°42.877 18.769283 3.725492 28.665671 8.623674
2004-05-12 07:22:58 51°14.464 2°42.85 18.768419 3.725702 28.668 8.623674
2004-05-12 07:23:02 51°14.462 2°42.828 18.77159 3.725386 28.665298 8.657383
2004-05-12 07:23:07 51°14.46 2°42.8 18.77056 3.725702 28.668528 8.623674
2004-05-12 07:23:13 51°14.456 2°42.767 18.77196 3.725597 28.667099 8.623674
2004-05-12 07:23:17 51°14.454 2°42.745 18.772784 3.725386 28.666354 8.589965
2004-05-12 07:23:23 51°14.451 2°42.712 18.772784 3.725386 28.666354 8.589965
2004-05-12 07:23:27 51°14.448 2°42.69 18.774884 3.725913 28.669273 8.623674
2004-05-12 07:23:33 51°14.446 2°42.657 18.77546 3.725702 28.666944 8.623674
2004-05-12 07:23:37 51°14.444 2°42.634 18.77616 3.725597 28.667099 8.657383
2004-05-12 07:23:43 51°14.441 2°42.601 18.775707 3.725492 28.666199 8.657383
2004-05-12 07:23:48 51°14.44 2°42.573 18.775707 3.725492 28.666199 8.657383
2004-05-12 07:23:53 51°14.436 2°42.546 18.77826 3.725808 28.667844 8.657383
2004-05-12 07:23:58 51°14.434 2°42.518 18.778631 3.725702 28.668 8.623674
2004-05-12 07:24:03 51°14.432 2°42.49 18.77999 3.726018 28.668589 8.657383
2004-05-12 07:24:05 51°14.43 2°42.479 18.780443 3.725492 28.665143 8.657383
2004-05-12 07:24:13 51°14.427 2°42.435 18.781349 3.725702 28.666944 8.623674
2004-05-12 07:24:17 51°14.425 2°42.412 18.781802 3.725597 28.665515 8.623674
2004-05-12 07:24:23 51°14.422 2°42.379 18.781802 3.725597 28.665515 8.623674
2004-05-12 07:24:26 51°14.42 2°42.362 18.782625 3.725702 28.666944 8.623674
2004-05-12 07:24:33 51°14.417 2°42.323 18.783778 3.725808 28.666788 8.623674
2004-05-12 07:24:38 51°14.414 2°42.294 18.784601 3.725702 28.667472 8.657383
2004-05-12 07:24:43 51°14.414 2°42.267 18.78596 3.725913 28.666633 8.623674
2004-05-12 07:24:47 51°14.41 2°42.245 18.786331 3.72507 28.662596 8.623674
2004-05-12 07:24:53 51°14.408 2°42.211 18.786331 3.72507 28.662596 8.623674
2004-05-12 07:24:58 51°14.405 2°42.184 18.78736 3.726018 28.670702 8.589965
2004-05-12 07:25:03 51°14.403 2°42.156 18.78843 3.725281 28.662813 8.623674
2004-05-12 07:25:07 51°14.4 2°42.134 18.789377 3.725808 28.667316 8.623674
2004-05-12 07:25:13 51°14.397 2°42.1 18.789707 3.725808 28.666788 8.623674
2004-05-12 07:25:17 51°14.396 2°42.078 18.790448 3.725702 28.664832 8.623674
2004-05-12 07:25:23 51°14.392 2°42.045 18.790448 3.725702 28.664832 8.623674
2004-05-12 07:25:28 51°14.392 2°42.017 18.791436 3.725913 28.667161 8.623674
2004-05-12 07:25:31 51°14.388 2°42.001 18.792136 3.725808 28.668373 8.589965
2004-05-12 07:25:37 51°14.386 2°41.967 18.794029 3.725702 28.664832 8.623674
2004-05-12 07:25:43 51°14.381 2°41.935 18.794441 3.725175 28.666137 8.657383
2004-05-12 07:25:47 51°14.381 2°41.913 18.794688 3.725808 28.676826 8.589965
2004-05-12 07:25:53 51°14.376 2°41.879 18.794688 3.725808 28.676826 8.589965
2004-05-12 07:25:58 51°14.375 2°41.852 18.796664 3.725175 28.670364 8.657383
2004-05-12 07:26:03 51°14.371 2°41.825 18.795676 3.725281 28.67285 8.589965
2004-05-12 07:26:07 51°14.37 2°41.803 18.798887 3.725597 28.664987 8.623674
2004-05-12 07:26:13 51°14.366 2°41.77 18.797858 3.724965 28.656416 8.623674
2004-05-12 07:26:18 51°14.363 2°41.742 18.798764 3.725386 28.654213 8.623674
2004-05-12 07:26:23 51°14.361 2°41.714 18.798764 3.725386 28.654213 8.623674
2004-05-12 07:26:27 51°14.359 2°41.692 18.800081 3.725281 28.653313 8.623674
2004-05-12 07:26:33 51°14.355 2°41.659 18.800245 3.725281 28.657007 8.623674
2004-05-12 07:26:37 51°14.354 2°41.636 18.802427 3.725386 28.660018 8.623674
2004-05-12 07:26:43 51°14.35 2°41.603 18.802468 3.725281 28.665982 8.623674
2004-05-12 07:26:47 51°14.349 2°41.581 18.802468 3.725281 28.665982 8.623674
2004-05-12 07:26:53 51°14.345 2°41.547 18.802139 3.725175 28.669835 8.589965
2004-05-12 07:26:57 51°14.345 2°41.525 18.806091 3.725175 28.668779 8.623674
2004-05-12 07:27:02 51°14.34 2°41.497 18.799463 3.725176 28.672477 8.589965
2004-05-12 07:27:07 51°14.339 2°41.469 18.808684 3.725597 28.670797 8.623674
2004-05-12 07:27:13 51°14.336 2°41.436 18.799916 3.724965 28.666449 8.657383
2004-05-12 07:27:17 51°14.334 2°41.413 18.799916 3.724965 28.666449 8.657383
2004-05-12 07:27:22 51°14.332 2°41.386 18.808931 3.725597 28.666571 8.623674
2004-05-12 07:27:27 51°14.328 2°41.358 18.805679 3.725386 28.665826 8.623674
2004-05-12 07:27:33 51°14.327 2°41.324 18.811441 3.725281 28.662285 8.623674
2004-05-12 07:27:38 51°14.322 2°41.297 18.805926 3.725808 28.667844 8.589965
2004-05-12 07:27:42 51°14.321 2°41.274 18.813376 3.725491 28.660919 8.691093
2004-05-12 07:27:47 51°14.319 2°41.246 18.807984 3.725281 28.662813 8.623674
2004-05-12 07:27:53 51°14.317 2°41.212 18.807984 3.725281 28.662813 8.623674
2004-05-12 07:27:58 51°14.315 2°41.184 18.812264 3.725597 28.663931 8.623674
2004-05-12 07:28:03 51°14.314 2°41.156 18.810618 3.725175 28.661913 8.691093
2004-05-12 07:28:07 51°14.311 2°41.134 18.80926 3.725702 28.665888 8.589965
2004-05-12 07:28:13 51°14.31 2°41.1 18.814446 3.725175 28.658745 8.657383
2004-05-12 07:28:17 51°14.307 2°41.078 18.815721 3.725175 28.658745 8.657383
2004-05-12 07:28:22 51°14.306 2°41.05 18.815721 3.725175 28.658745 8.657383
2004-05-12 07:28:27 51°14.302 2°41.023 18.811894 3.725808 28.664148 8.589965
2004-05-12 07:28:33 51°14.301 2°40.988 18.820042 3.72507 28.656789 8.657383
2004-05-12 07:28:35 51°14.3 2°40.977 18.814898 3.725702 28.664832 8.589965
2004-05-12 07:28:43 51°14.296 2°40.933 18.816503 3.725491 28.663559 8.623674
2004-05-12 07:28:48 51°14.295 2°40.905 18.822306 3.725491 28.662503 8.623674
2004-05-12 07:28:53 51°14.292 2°40.877 18.822306 3.725491 28.662503 8.623674
2004-05-12 07:28:58 51°14.291 2°40.849 18.818026 3.725702 28.666944 8.657383
2004-05-12 07:29:02 51°14.289 2°40.827 18.818849 3.726124 28.667378 8.623674
2004-05-12 07:29:07 51°14.287 2°40.798 18.824775 3.725175 28.65769 8.657383
2004-05-12 07:29:13 51°14.285 2°40.764 18.81568 3.725597 28.662347 8.657383
2004-05-12 07:29:17 51°14.283 2°40.742 18.826709 3.725808 28.660981 8.657383
2004-05-12 07:29:21 51°14.283 2°40.719 18.826709 3.725808 28.660981 8.657383
2004-05-12 07:29:26 51°14.28 2°40.692 18.817903 3.725281 28.659646 8.623674
2004-05-12 07:29:33 51°14.277 2°40.652 18.820701 3.725702 28.663248 8.657383
2004-05-12 07:29:37 51°14.277 2°40.629 18.825104 3.725808 28.664676 8.623674
2004-05-12 07:29:43 51°14.274 2°40.595 18.825022 3.725597 28.663403 8.657383
2004-05-12 07:29:45 51°14.273 2°40.584 18.829095 3.725808 28.664676 8.657383
2004-05-12 07:29:53 51°14.271 2°40.54 18.829095 3.725808 28.664676 8.657383
2004-05-12 07:29:57 51°14.268 2°40.517 18.82605 3.725702 28.664832 8.589965
2004-05-12 07:30:02 51°14.268 2°40.489 18.83107 3.725386 28.660546 8.623674
2004-05-12 07:30:06 51°14.265 2°40.467 18.82675 3.725597 28.662875 8.623674
2004-05-12 07:30:13 51°14.262 2°40.427 18.827408 3.725808 28.664676 8.657383
2004-05-12 07:30:17 51°14.262 2°40.404 18.827408 3.725808 28.664676 8.657383
2004-05-12 07:30:23 51°14.259 2°40.371 18.828314 3.725913 28.665577 8.623674
2004-05-12 07:30:27 51°14.257 2°40.348 18.833827 3.726124 28.666322 8.623674
2004-05-12 07:30:33 51°14.254 2°40.314 18.832799 3.725808 28.66362 8.623674
2004-05-12 07:30:38 51°14.254 2°40.286 18.838188 3.725597 28.660763 8.623674
2004-05-12 07:30:43 51°14.251 2°40.259 18.830124 3.726018 28.666477 8.623674
2004-05-12 07:30:47 51°14.249 2°40.236 18.830124 3.726018 28.666477 8.623674
2004-05-12 07:30:53 51°14.247 2°40.203 18.841809 3.726124 28.665266 8.623674
2004-05-12 07:30:57 51°14.245 2°40.18 18.834527 3.726018 28.666477 8.623674
2004-05-12 07:31:03 51°14.243 2°40.147 18.841068 3.726545 28.669396 8.623674
2004-05-12 07:31:07 51°14.242 2°40.125 18.836872 3.725808 28.66362 8.657383
2004-05-12 07:31:13 51°14.239 2°40.092 18.833992 3.725702 28.663776 8.623674
2004-05-12 07:31:17 51°14.238 2°40.069 18.838517 3.725913 28.663465 8.657383
2004-05-12 07:31:23 51°14.235 2°40.035 18.838517 3.725913 28.663465 8.657383
2004-05-12 07:31:27 51°14.234 2°40.013 18.840698 3.726124 28.664738 8.623674
2004-05-12 07:31:33 51°14.232 2°39.979 18.838147 3.725702 28.663248 8.657383
2004-05-12 07:31:38 51°14.23 2°39.951 18.839093 3.725808 28.663092 8.623674
2004-05-12 07:31:43 51°14.228 2°39.923 18.840245 3.726018 28.664893 8.589965
2004-05-12 07:31:46 51°14.226 2°39.906 18.846663 3.725913 28.662409 8.623674
2004-05-12 07:31:53 51°14.224 2°39.867 18.846663 3.725913 28.662409 8.623674
2004-05-12 07:31:57 51°14.222 2°39.845 18.843331 3.72644 28.669023 8.623674
2004-05-12 07:32:03 51°14.219 2°39.811 18.842755 3.726018 28.665421 8.657383
2004-05-12 07:32:07 51°14.218 2°39.788 18.845676 3.72644 28.667439 8.623674
2004-05-12 07:32:13 51°14.215 2°39.754 18.846498 3.725913 28.663993 8.623674
2004-05-12 07:32:17 51°14.214 2°39.732 18.844565 3.726334 28.666539 8.589965
2004-05-12 07:32:23 51°14.211 2°39.698 18.844565 3.726334 28.666539 8.589965
2004-05-12 07:32:28 51°14.211 2°39.669 18.84765 3.725913 28.664521 8.657383
2004-05-12 07:32:33 51°14.209 2°39.641 18.848925 3.726334 28.666539 8.589965
2004-05-12 07:32:37 51°14.208 2°39.618 18.848555 3.726124 28.66421 8.691093
2004-05-12 07:32:43 51°14.206 2°39.585 18.850365 3.726018 28.664365 8.623674
2004-05-12 07:32:45 51°14.204 2°39.574 18.855466 3.72644 28.666911 8.623674
2004-05-12 07:32:53 51°14.202 2°39.528 18.855466 3.72644 28.666911 8.623674
2004-05-12 07:32:57 51°14.201 2°39.505 18.852627 3.725808 28.663092 8.657383
2004-05-12 07:33:01 51°14.199 2°39.482 18.85164 3.726545 28.668868 8.589965
2004-05-12 07:33:07 51°14.198 2°39.449 18.852998 3.725913 28.662409 8.657383
2004-05-12 07:33:13 51°14.194 2°39.415 18.852545 3.725808 28.664676 8.657383
2004-05-12 07:33:17 51°14.194 2°39.392 18.856288 3.726545 28.668868 8.657383
2004-05-12 07:33:23 51°14.19 2°39.359 18.856288 3.726545 28.668868 8.657383
2004-05-12 07:33:28 51°14.186 2°39.331 18.855013 3.726018 28.664365 8.657383
2004-05-12 07:33:33 51°14.184 2°39.304 18.858262 3.726018 28.664365 8.623674
2004-05-12 07:33:38 51°14.179 2°39.276 18.855013 3.725808 28.664676 8.657383
2004-05-12 07:33:43 51°14.178 2°39.248 18.859003 3.72644 28.666911 8.623674
2004-05-12 07:33:47 51°14.173 2°39.226 18.859003 3.72644 28.666911 8.623674
2004-05-12 07:33:53 51°14.171 2°39.192 18.858057 3.725597 28.660763 8.657383
2004-05-12 07:33:58 51°14.167 2°39.165 18.855918 3.725913 28.663465 8.623674
2004-05-12 07:34:03 51°14.164 2°39.137 18.859702 3.726124 28.666322 8.623674
2004-05-12 07:34:07 51°14.161 2°39.115 18.859908 3.726229 28.666694 8.623674
2004-05-12 07:34:13 51°14.158 2°39.081 18.864061 3.726229 28.666166 8.657383
2004-05-12 07:34:17 51°14.155 2°39.059 18.860442 3.725913 28.663993 8.657383
2004-05-12 07:34:23 51°14.151 2°39.026 18.860442 3.725913 28.663993 8.657383
2004-05-12 07:34:27 51°14.149 2°39.003 18.862334 3.725808 28.662564 8.657383
2004-05-12 07:34:33 51°14.146 2°38.969 18.861882 3.726334 28.666011 8.623674
2004-05-12 07:34:37 51°14.144 2°38.946 18.86439 3.725808 28.660453 8.623674
2004-05-12 07:34:43 51°14.141 2°38.912 18.864061 3.725808 28.660981 8.657383
2004-05-12 07:34:48 51°14.138 2°38.884 18.864843 3.725913 28.663465 8.657383
2004-05-12 07:34:53 51°14.135 2°38.856 18.864843 3.725913 28.663465 8.657383
2004-05-12 07:34:58 51°14.133 2°38.828 18.86768 3.726229 28.665638 8.657383
2004-05-12 07:35:02 51°14.13 2°38.806 18.865501 3.726018 28.663837 8.623674
2004-05-12 07:35:05 51°14.128 2°38.789 18.867146 3.726229 28.665638 8.657383
2004-05-12 07:35:13 51°14.123 2°38.744 18.86768 3.726229 28.664582 8.657383
2004-05-12 07:35:17 51°14.121 2°38.721 18.868133 3.726018 28.663309 8.657383
2004-05-12 07:35:22 51°14.117 2°38.694 18.868133 3.726018 28.663309 8.657383
2004-05-12 07:35:27 51°14.115 2°38.666 18.871711 3.726334 28.663899 8.657383
2004-05-12 07:35:33 51°14.11 2°38.633 18.869737 3.725597 28.660236 8.623674
2004-05-12 07:35:37 51°14.108 2°38.611 18.872739 3.726334 28.666011 8.657383
2004-05-12 07:35:42 51°14.104 2°38.583 18.872451 3.725808 28.661509 8.657383
2004-05-12 07:35:47 51°14.1 2°38.556 18.873109 3.726229 28.66511 8.623674
2004-05-12 07:35:53 51°14.095 2°38.522 18.873109 3.726229 28.66511 8.623674
2004-05-12 07:35:57 51°14.093 2°38.501 18.875535 3.726229 28.662999 8.657383
2004-05-12 07:36:03 51°14.086 2°38.468 18.874178 3.726018 28.664365 8.657383
2004-05-12 07:36:05 51°14.085 2°38.456 18.879235 3.726334 28.663371 8.657383
2004-05-12 07:36:13 51°14.077 2°38.413 18.876069 3.726018 28.664365 8.691093
2004-05-12 07:36:18 51°14.074 2°38.385 18.877467 3.726229 28.664054 8.623674
2004-05-12 07:36:23 51°14.069 2°38.357 18.877467 3.726229 28.664054 8.623674
2004-05-12 07:36:27 51°14.066 2°38.335 18.879153 3.725913 28.660825 8.691093
2004-05-12 07:36:33 51°14.061 2°38.302 18.877879 3.726229 28.664054 8.623674
2004-05-12 07:36:38 51°14.055 2°38.275 18.878906 3.726018 28.663309 8.657383
2004-05-12 07:36:43 51°14.048 2°38.249 18.878084 3.726124 28.665266 8.657383
2004-05-12 07:36:48 51°14.043 2°38.222 18.878084 3.726018 28.663309 8.623674
2004-05-12 07:36:53 51°14.035 2°38.197 18.878084 3.726018 28.663309 8.623674
2004-05-12 07:36:58 51°14.029 2°38.17 18.883224 3.726229 28.662999 8.691093
2004-05-12 07:37:03 51°14.022 2°38.144 18.881538 3.726018 28.664365 8.623674
2004-05-12 07:37:08 51°14.016 2°38.117 18.884046 3.726334 28.663371 8.657383
2004-05-12 07:37:13 51°14.009 2°38.092 18.885608 3.725808 28.662036 8.691093
2004-05-12 07:37:17 51°14.004 2°38.07 18.88495 3.726229 28.66511 8.623674
2004-05-12 07:37:23 51°13.995 2°38.04 18.88495 3.726229 28.66511 8.623674
2004-05-12 07:37:27 51°13.991 2°38.019 18.885937 3.726018 28.665421 8.623674
2004-05-12 07:37:33 51°13.981 2°37.989 18.884663 3.726018 28.665949 8.657383
2004-05-12 07:37:38 51°13.977 2°37.962 18.891035 3.726229 28.661943 8.657383
2004-05-12 07:37:42 51°13.968 2°37.943 18.886019 3.725808 28.663092 8.623674
2004-05-12 07:37:45 51°13.966 2°37.926 18.882854 3.726229 28.667222 8.623674
2004-05-12 07:37:53 51°13.954 2°37.886 18.882854 3.726229 28.667222 8.623674
2004-05-12 07:37:57 51°13.95 2°37.865 18.89457 3.725702 28.665888 8.691093
2004-05-12 07:38:03 51°13.94 2°37.835 18.880346 3.725702 28.672754 8.623674
2004-05-12 07:38:06 51°13.936 2°37.82 18.886225 3.726018 28.671758 8.657383
2004-05-12 07:38:13 51°13.922 2°37.786 18.888322 3.725597 28.663403 8.657383
2004-05-12 07:38:18 51°13.914 2°37.761 18.888322 3.725597 28.663403 8.657383
2004-05-12 07:38:23 51°13.905 2°37.737 18.886677 3.726124 28.657876 8.623674
2004-05-12 07:38:25 51°13.901 2°37.727 18.88787 3.725702 28.649001 8.623674
2004-05-12 07:38:33 51°13.886 2°37.689 18.893296 3.725807 28.645155 8.657383
2004-05-12 07:38:38 51°13.876 2°37.665 18.892844 3.72528 28.645401 8.657383
2004-05-12 07:38:43 51°13.866 2°37.641 18.888568 3.725807 28.657814 8.657383
2004-05-12 07:38:47 51°13.859 2°37.622 18.892638 3.725597 28.660763 8.657383
2004-05-12 07:38:53 51°13.848 2°37.593 18.892638 3.725597 28.660763 8.657383
2004-05-12 07:38:57 51°13.839 2°37.575 18.887952 3.725702 28.668528 8.623674
2004-05-12 07:39:03 51°13.829 2°37.545 18.900243 3.725702 28.670113 8.657383
2004-05-12 07:39:08 51°13.819 2°37.522 18.892392 3.725913 28.671386 8.623674
2004-05-12 07:39:13 51°13.811 2°37.497 18.896914 3.725702 28.666944 8.657383
2004-05-12 07:39:18 51°13.802 2°37.473 18.895187 3.725913 28.666105 8.657383
2004-05-12 07:39:22 51°13.795 2°37.454 18.895187 3.725913 28.666105 8.657383
2004-05-12 07:39:25 51°13.79 2°37.439 18.896955 3.725702 28.661136 8.657383
2004-05-12 07:39:33 51°13.778 2°37.398 18.896914 3.725913 28.660825 8.657383
2004-05-12 07:39:37 51°13.772 2°37.377 18.902381 3.726229 28.662471 8.623674
2004-05-12 07:39:43 51°13.762 2°37.347 18.896379 3.725702 28.66008 8.657383
2004-05-12 07:39:45 51°13.76 2°37.337 18.902874 3.726229 28.662471 8.623674
2004-05-12 07:39:53 51°13.749 2°37.296 18.902874 3.726229 28.662471 8.623674
2004-05-12 07:39:58 51°13.741 2°37.27 18.895352 3.725808 28.660981 8.623674
2004-05-12 07:40:03 51°13.736 2°37.244 18.909039 3.726334 28.663371 8.691093
2004-05-12 07:40:07 51°13.729 2°37.225 18.897859 3.726229 28.664582 8.623674
2004-05-12 07:40:13 51°13.721 2°37.193 18.905217 3.726334 28.663371 8.657383
2004-05-12 07:40:17 51°13.716 2°37.172 18.903984 3.726229 28.661415 8.623674
2004-05-12 07:40:23 51°13.707 2°37.142 18.903984 3.726229 28.661415 8.623674
2004-05-12 07:40:27 51°13.701 2°37.121 18.902668 3.725808 28.658342 8.657383
2004-05-12 07:40:33 51°13.693 2°37.089 18.90719 3.72644 28.663216 8.657383
2004-05-12 07:40:38 51°13.686 2°37.063 18.905504 3.726018 28.660142 8.657383
2004-05-12 07:40:43 51°13.679 2°37.038 18.902216 3.72644 28.664272 8.623674
2004-05-12 07:40:48 51°13.672 2°37.011 18.913026 3.726334 28.663371 8.657383
2004-05-12 07:40:53 51°13.666 2°36.983 18.913026 3.726334 28.663371 8.657383
2004-05-12 07:40:58 51°13.659 2°36.957 18.903901 3.72644 28.664799 8.657383
2004-05-12 07:41:03 51°13.652 2°36.931 18.908135 3.726229 28.662999 8.657383
2004-05-12 07:41:06 51°13.649 2°36.915 18.910478 3.72644 28.663744 8.657383
2004-05-12 07:41:13 51°13.639 2°36.879 18.90982 3.72644 28.663216 8.623674
2004-05-12 07:41:17 51°13.633 2°36.859 18.90982 3.72644 28.663216 8.623674
2004-05-12 07:41:23 51°13.626 2°36.827 18.908381 3.726124 28.66157 8.657383
2004-05-12 07:41:27 51°13.619 2°36.808 18.9113 3.726756 28.664333 8.623674
2004-05-12 07:41:31 51°13.613 2°36.787 18.912368 3.726018 28.659615 8.657383
2004-05-12 07:41:37 51°13.606 2°36.756 18.915985 3.726545 28.661477 8.657383
2004-05-12 07:41:43 51°13.597 2°36.725 18.911012 3.726334 28.662316 8.657383
2004-05-12 07:41:47 51°13.592 2°36.705 18.911012 3.726334 28.662316 8.657383
2004-05-12 07:41:53 51°13.583 2°36.673 18.915163 3.726756 28.664861 8.657383
2004-05-12 07:41:58 51°13.578 2°36.646 18.918327 3.72644 28.661632 8.623674
2004-05-12 07:42:03 51°13.57 2°36.62 18.914711 3.726756 28.665389 8.657383
2004-05-12 07:42:07 51°13.565 2°36.599 18.918409 3.726756 28.664333 8.623674
2004-05-12 07:42:13 51°13.558 2°36.567 18.914834 3.72644 28.661632 8.623674
2004-05-12 07:42:17 51°13.552 2°36.546 18.918697 3.726545 28.662005 8.691093
2004-05-12 07:42:23 51°13.546 2°36.513 18.918697 3.726545 28.662005 8.691093
2004-05-12 07:42:27 51°13.541 2°36.492 18.914998 3.72644 28.66216 8.623674
2004-05-12 07:42:33 51°13.534 2°36.46 18.920669 3.726545 28.661477 8.657383
2004-05-12 07:42:37 51°13.529 2°36.439 18.917053 3.726334 28.661788 8.623674
2004-05-12 07:42:43 51°13.522 2°36.406 18.922395 3.726651 28.662905 8.657383
2004-05-12 07:42:48 51°13.515 2°36.38 18.922231 3.726545 28.662005 8.657383
2004-05-12 07:42:53 51°13.51 2°36.354 18.922231 3.726545 28.662005 8.657383
2004-05-12 07:42:58 51°13.502 2°36.328 18.917053 3.726229 28.661943 8.623674
2004-05-12 07:43:03 51°13.497 2°36.301 18.926833 3.726545 28.661477 8.691093
2004-05-12 07:43:07 51°13.491 2°36.281 18.917341 3.726229 28.661943 8.657383
2004-05-12 07:43:13 51°13.484 2°36.249 18.926915 3.726651 28.665016 8.691093
2004-05-12 07:43:18 51°13.478 2°36.222 18.924655 3.726861 28.665761 8.657383
2004-05-12 07:43:23 51°13.471 2°36.197 18.924655 3.726861 28.665761 8.657383
2004-05-12 07:43:27 51°13.466 2°36.176 18.925559 3.726334 28.660205 8.623674
2004-05-12 07:43:33 51°13.458 2°36.145 18.924368 3.72644 28.663216 8.657383
2004-05-12 07:43:38 51°13.45 2°36.119 18.922436 3.726651 28.663961 8.657383
2004-05-12 07:43:43 51°13.445 2°36.093 18.929339 3.726651 28.661322 8.657383
2004-05-12 07:43:47 51°13.439 2°36.072 18.92671 3.726334 28.662316 8.657383
2004-05-12 07:43:53 51°13.432 2°36.039 18.92671 3.726334 28.662316 8.657383
2004-05-12 07:43:57 51°13.426 2°36.019 18.92823 3.726861 28.664706 8.623674
2004-05-12 07:44:03 51°13.419 2°35.987 18.93086 3.726651 28.662905 8.657383
2004-05-12 07:44:08 51°13.412 2°35.96 18.926011 3.726229 28.662999 8.657383
2004-05-12 07:44:13 51°13.407 2°35.933 18.931147 3.726861 28.665234 8.657383
2004-05-12 07:44:18 51°13.401 2°35.906 18.927203 3.72644 28.663216 8.657383
2004-05-12 07:44:22 51°13.396 2°35.885 18.927203 3.72644 28.663216 8.657383
2004-05-12 07:44:28 51°13.389 2°35.851 18.932257 3.726756 28.664333 8.657383
2004-05-12 07:44:33 51°13.383 2°35.825 18.930408 3.726651 28.662905 8.623674
2004-05-12 07:44:37 51°13.378 2°35.804 18.929463 3.726545 28.661477 8.657383
2004-05-12 07:44:43 51°13.37 2°35.77 18.934927 3.72644 28.660577 8.691093
2004-05-12 07:44:45 51°13.368 2°35.759 18.934064 3.726756 28.662222 8.657383
2004-05-12 07:44:53 51°13.359 2°35.716 18.934064 3.726756 28.662222 8.657383
2004-05-12 07:44:57 51°13.354 2°35.694 18.934516 3.726651 28.66185 8.657383
2004-05-12 07:45:01 51°13.348 2°35.673 18.936735 3.726861 28.665761 8.657383
2004-05-12 07:45:07 51°13.341 2°35.64 18.937556 3.726967 28.665078 8.623674
2004-05-12 07:45:13 51°13.332 2°35.608 18.93731 3.726545 28.661477 8.657383
2004-05-12 07:45:18 51°13.326 2°35.58 18.93731 3.726545 28.661477 8.657383
2004-05-12 07:45:23 51°13.318 2°35.555 18.939528 3.726967 28.663495 8.657383
2004-05-12 07:45:27 51°13.313 2°35.532 18.938542 3.726651 28.662378 8.657383
2004-05-12 07:45:33 51°13.306 2°35.5 18.939775 3.726756 28.661695 8.657383
2004-05-12 07:45:37 51°13.3 2°35.48 18.937474 3.726334 28.659677 8.623674
2004-05-12 07:45:43 51°13.293 2°35.448 18.941418 3.726967 28.663495 8.657383
2004-05-12 07:45:48 51°13.284 2°35.423 18.939693 3.72644 28.660577 8.657383
2004-05-12 07:45:53 51°13.278 2°35.396 18.939693 3.72644 28.660577 8.657383
2004-05-12 07:45:58 51°13.271 2°35.37 18.942979 3.726861 28.662067 8.657383
2004-05-12 07:46:03 51°13.263 2°35.344 18.941582 3.72644 28.661105 8.623674
2004-05-12 07:46:07 51°13.258 2°35.324 18.939898 3.726861 28.665234 8.589965
2004-05-12 07:46:13 51°13.249 2°35.292 18.944951 3.726651 28.660267 8.657383
2004-05-12 07:46:18 51°13.241 2°35.267 18.944212 3.726756 28.663278 8.657383
2004-05-12 07:46:23 51°13.235 2°35.241 18.944212 3.726756 28.663278 8.657383
2004-05-12 07:46:27 51°13.229 2°35.221 18.943595 3.726861 28.663122 8.623674
2004-05-12 07:46:33 51°13.221 2°35.189 18.94528 3.72644 28.661105 8.657383
2004-05-12 07:46:38 51°13.214 2°35.163 18.944581 3.726756 28.663278 8.623674
2004-05-12 07:46:43 51°13.207 2°35.136 18.947375 3.726545 28.66095 8.657383
2004-05-12 07:46:48 51°13.201 2°35.11 18.945485 3.726756 28.663278 8.657383
2004-05-12 07:46:53 51°13.193 2°35.084 18.945485 3.726756 28.663278 8.657383
2004-05-12 07:46:58 51°13.187 2°35.057 18.949018 3.726967 28.662967 8.623674
2004-05-12 07:47:03 51°13.18 2°35.031 18.947826 3.726334 28.659149 8.657383
2004-05-12 07:47:08 51°13.173 2°35.004 18.946676 3.726756 28.661167 8.691093
2004-05-12 07:47:13 51°13.166 2°34.977 18.949634 3.726651 28.660794 8.657383
2004-05-12 07:47:18 51°13.159 2°34.95 18.949018 3.726756 28.661695 8.623674
2004-05-12 07:47:22 51°13.153 2°34.929 18.949018 3.726756 28.661695 8.623674
2004-05-12 07:47:28 51°13.146 2°34.897 18.952057 3.726756 28.659584 8.657383
2004-05-12 07:47:33 51°13.139 2°34.871 18.949839 3.726651 28.660794 8.657383
2004-05-12 07:47:37 51°13.134 2°34.848 18.951277 3.726756 28.660112 8.657383
2004-05-12 07:47:43 51°13.127 2°34.815 18.952797 3.72665 28.658156 8.691093
2004-05-12 07:47:47 51°13.121 2°34.794 18.951605 3.72644 28.660577 8.657383
2004-05-12 07:47:53 51°13.113 2°34.762 18.951605 3.72644 28.660577 8.657383
2004-05-12 07:47:58 51°13.107 2°34.735 18.95559 3.727072 28.662284 8.657383
2004-05-12 07:48:02 51°13.101 2°34.713 18.953043 3.726545 28.662533 8.657383
2004-05-12 07:48:07 51°13.094 2°34.685 18.955507 3.726756 28.661695 8.657383
2004-05-12 07:48:13 51°13.086 2°34.653 18.956206 3.726756 28.661167 8.657383
2004-05-12 07:48:17 51°13.081 2°34.632 18.955138 3.72665 28.659211 8.657383
2004-05-12 07:48:23 51°13.073 2°34.599 18.955138 3.72665 28.659211 8.657383
2004-05-12 07:48:27 51°13.067 2°34.577 18.956411 3.726756 28.661167 8.657383
2004-05-12 07:48:33 51°13.06 2°34.544 18.957315 3.72665 28.657101 8.657383
2004-05-12 07:48:38 51°13.052 2°34.519 18.955959 3.726545 28.659894 8.623674
2004-05-12 07:48:43 51°13.046 2°34.492 18.958834 3.726861 28.661012 8.623674
2004-05-12 07:48:47 51°13.04 2°34.471 18.958547 3.726545 28.659367 8.724802
2004-05-12 07:48:53 51°13.031 2°34.438 18.958547 3.726545 28.659367 8.724802
2004-05-12 07:48:57 51°13.027 2°34.417 18.961011 3.726756 28.658001 8.657383
2004-05-12 07:49:03 51°13.017 2°34.387 18.957191 3.72644 28.658994 8.657383
2004-05-12 07:49:08 51°13.012 2°34.359 18.96253 3.726967 28.660329 8.657383
2004-05-12 07:49:13 51°13.003 2°34.334 18.96019 3.726334 28.658094 8.657383
2004-05-12 07:49:18 51°12.998 2°34.306 18.961709 3.726967 28.661384 8.657383
2004-05-12 07:49:23 51°12.991 2°34.281 18.961709 3.726967 28.661384 8.657383
2004-05-12 07:49:26 51°12.988 2°34.265 18.962325 3.726545 28.659894 8.657383
2004-05-12 07:49:33 51°12.979 2°34.228 18.962448 3.72665 28.659739 8.623674
2004-05-12 07:49:37 51°12.973 2°34.206 18.961832 3.72644 28.657411 8.691093
2004-05-12 07:49:43 51°12.965 2°34.174 18.963804 3.726756 28.658529 8.657383
2004-05-12 07:49:48 51°12.958 2°34.148 18.960641 3.726334 28.655983 8.691093
2004-05-12 07:49:53 51°12.952 2°34.121 18.960641 3.726334 28.655983 8.691093
2004-05-12 07:49:57 51°12.946 2°34.1 18.966678 3.726967 28.658746 8.691093
2004-05-12 07:50:03 51°12.939 2°34.067 18.967294 3.72665 28.656574 8.691093
2004-05-12 07:50:08 51°12.931 2°34.041 18.964337 3.72665 28.658156 8.691093
2004-05-12 07:50:13 51°12.926 2°34.013 18.96984 3.726545 28.655674 8.691093
2004-05-12 07:50:18 51°12.918 2°33.987 18.961997 3.726334 28.660205 8.657383
2004-05-12 07:50:23 51°12.912 2°33.959 18.961997 3.726334 28.660205 8.657383
2004-05-12 07:50:25 51°12.91 2°33.947 18.97062 3.727072 28.66334 8.657383
2004-05-12 07:50:33 51°12.899 2°33.905 18.96828 3.726334 28.659677 8.657383
2004-05-12 07:50:37 51°12.893 2°33.884 18.964584 3.726861 28.66365 8.657383
2004-05-12 07:50:43 51°12.886 2°33.851 18.967664 3.72665 28.659211 8.657383
2004-05-12 07:50:47 51°12.88 2°33.83 18.969183 3.726229 28.656666 8.691093
2004-05-12 07:50:53 51°12.874 2°33.796 18.969183 3.726229 28.656666 8.691093
2004-05-12 07:50:56 51°12.869 2°33.781 18.96828 3.726756 28.659056 8.657383
2004-05-12 07:51:03 51°12.86 2°33.743 18.970004 3.72644 28.655301 8.657383
2004-05-12 07:51:05 51°12.857 2°33.733 18.968116 3.726756 28.659584 8.623674
2004-05-12 07:51:13 51°12.846 2°33.691 18.969101 3.726545 28.658311 8.657383
2004-05-12 07:51:17 51°12.84 2°33.67 18.973536 3.726861 28.660484 8.657383
2004-05-12 07:51:23 51°12.833 2°33.637 18.973536 3.726861 28.660484 8.657383
2004-05-12 07:51:28 51°12.826 2°33.611 18.972263 3.726756 28.659584 8.691093
2004-05-12 07:51:33 51°12.819 2°33.584 18.970661 3.726545 28.657256 8.657383
2004-05-12 07:51:37 51°12.814 2°33.562 18.974809 3.72644 28.656884 8.657383
2004-05-12 07:51:43 51°12.807 2°33.529 18.975712 3.726967 28.659274 8.657383
2004-05-12 07:51:45 51°12.804 2°33.519 18.976041 3.726545 28.656729 8.691093
2004-05-12 07:51:53 51°12.793 2°33.477 18.976041 3.726545 28.656729 8.691093
2004-05-12 07:51:57 51°12.787 2°33.456 18.974891 3.726967 28.660329 8.657383
2004-05-12 07:52:01 51°12.781 2°33.434 18.977108 3.72665 28.658156 8.657383
2004-05-12 07:52:07 51°12.774 2°33.401 18.979818 3.726861 28.657319 8.691093
2004-05-12 07:52:13 51°12.765 2°33.37 18.977683 3.726545 28.658311 8.691093
2004-05-12 07:52:18 51°12.759 2°33.343 18.976862 3.726967 28.661384 8.657383
2004-05-12 07:52:23 51°12.751 2°33.317 18.976862 3.726967 28.661384 8.657383
2004-05-12 07:52:27 51°12.747 2°33.295 18.981378 3.726545 28.656201 8.657383
2004-05-12 07:52:33 51°12.738 2°33.264 18.978381 3.726861 28.661012 8.657383
2004-05-12 07:52:37 51°12.733 2°33.243 18.981748 3.727072 28.660174 8.657383
2004-05-12 07:52:43 51°12.724 2°33.211 18.980393 3.726545 28.656729 8.691093
2004-05-12 07:52:48 51°12.717 2°33.183 18.983718 3.72665 28.658156 8.691093
2004-05-12 07:52:53 51°12.711 2°33.156 18.983718 3.72665 28.658156 8.691093
2004-05-12 07:52:58 51°12.702 2°33.131 18.98183 3.726861 28.658374 8.657383
2004-05-12 07:53:03 51°12.697 2°33.104 18.98532 3.726756 28.656419 8.623674
2004-05-12 07:53:07 51°12.69 2°33.083 18.982364 3.726545 28.657784 8.657383
2004-05-12 07:53:13 51°12.683 2°33.05 18.984088 3.726967 28.660857 8.691093
2004-05-12 07:53:18 51°12.676 2°33.023 18.986798 3.726756 28.658529 8.691093
2004-05-12 07:53:23 51°12.67 2°32.996 18.986798 3.726756 28.658529 8.691093
2004-05-12 07:53:27 51°12.664 2°32.975 18.983801 3.726967 28.661912 8.657383
2004-05-12 07:53:33 51°12.656 2°32.942 18.987126 3.72665 28.659211 8.657383
2004-05-12 07:53:38 51°12.649 2°32.916 18.98688 3.726861 28.659956 8.691093
2004-05-12 07:53:43 51°12.643 2°32.889 18.987742 3.726334 28.653873 8.657383
2004-05-12 07:53:48 51°12.636 2°32.863 18.989384 3.727072 28.661229 8.657383
2004-05-12 07:53:53 51°12.63 2°32.835 18.989384 3.727072 28.661229 8.657383
2004-05-12 07:53:58 51°12.623 2°32.809 18.989302 3.72665 28.657629 8.657383
2004-05-12 07:54:03 51°12.616 2°32.784 18.990533 3.726967 28.658746 8.657383
2004-05-12 07:54:08 51°12.609 2°32.757 18.989959 3.726545 28.656729 8.657383
2004-05-12 07:54:13 51°12.602 2°32.73 18.99234 3.726967 28.659274 8.691093
2004-05-12 07:54:18 51°12.595 2°32.704 18.989138 3.72665 28.657101 8.691093
2004-05-12 07:54:22 51°12.589 2°32.684 18.989138 3.72665 28.657101 8.691093
2004-05-12 07:54:28 51°12.581 2°32.652 18.9939 3.726967 28.656636 8.691093
2004-05-12 07:54:33 51°12.575 2°32.625 18.993448 3.72665 28.654991 8.691093
2004-05-12 07:54:37 51°12.569 2°32.604 18.993612 3.726861 28.657846 8.691093
2004-05-12 07:54:42 51°12.563 2°32.577 18.993448 3.727072 28.658591 8.657383
2004-05-12 07:54:47 51°12.555 2°32.552 18.996404 3.726861 28.657319 8.691093
2004-05-12 07:54:53 51°12.548 2°32.519 18.996404 3.726861 28.657319 8.691093
2004-05-12 07:54:57 51°12.542 2°32.498 18.99353 3.726861 28.661012 8.657383
2004-05-12 07:55:03 51°12.533 2°32.468 18.995624 3.727072 28.660174 8.657383
2004-05-12 07:55:07 51°12.528 2°32.445 18.998579 3.726229 28.652973 8.691093
2004-05-12 07:55:13 51°12.52 2°32.414 18.995624 3.727072 28.66334 8.657383
2004-05-12 07:55:17 51°12.514 2°32.393 18.999687 3.726756 28.659056 8.691093
2004-05-12 07:55:23 51°12.506 2°32.361 18.999687 3.726756 28.659056 8.691093
2004-05-12 07:55:27 51°12.5 2°32.34 18.998045 3.726756 28.659056 8.657383
2004-05-12 07:55:33 51°12.492 2°32.309 18.999318 3.726967 28.660857 8.657383
2004-05-12 07:55:37 51°12.487 2°32.287 19.000755 3.726967 28.659801 8.657383
2004-05-12 07:55:43 51°12.477 2°32.253 19.001534 3.72665 28.656046 8.657383